<?xml version="1.0" encoding="UTF-8" standalone="no" ?>
<gpx xmlns="http://www.topografix.com/GPX/1/1" xmlns:xsi="http://www.w3.org/2001/XMLSchema-instance" xsi:schemaLocation="http://www.topografix.com/GPX/1/1 http://www.topografix.com/GPX/1/1/gpx.xsd" version="1.1" creator="VisuGPX - https://www.visugpx.com">
  <metadata>
    <name>Chatonnay 23km</name>
    <desc><![CDATA[J1]]></desc>
  </metadata>
  <trk>
    <name><![CDATA[fait le 2024-05-18 17:05:38]]></name>
    <desc><![CDATA[







]]></desc>
    <extensions>
      <line xmlns="http://www.topografix.com/GPX/gpx_style/0/2">
        <color>ff1100</color>
        <width>4</width>
        <dasharray>12</dasharray>
      </line>
    </extensions>
    <trkseg>
      <trkpt lat="45.44397" lon="5.21936">
        <ele>537.03</ele>
        <time>2024-05-18T09:02:01Z</time>
      </trkpt>
      <trkpt lat="45.44397" lon="5.21905">
        <ele>537.99</ele>
        <time>2024-05-18T09:02:15Z</time>
      </trkpt>
      <trkpt lat="45.44398" lon="5.21903">
        <ele>537.99</ele>
        <time>2024-05-18T09:02:16Z</time>
      </trkpt>
      <trkpt lat="45.44419" lon="5.21909">
        <ele>542.32</ele>
        <time>2024-05-18T09:02:33Z</time>
      </trkpt>
      <trkpt lat="45.44428" lon="5.2192">
        <ele>545.2</ele>
        <time>2024-05-18T09:02:45Z</time>
      </trkpt>
      <trkpt lat="45.44432" lon="5.21933">
        <ele>546.17</ele>
        <time>2024-05-18T09:02:55Z</time>
      </trkpt>
      <trkpt lat="45.44457" lon="5.21962">
        <ele>548.57</ele>
        <time>2024-05-18T09:03:11Z</time>
      </trkpt>
      <trkpt lat="45.44469" lon="5.21979">
        <ele>551.45</ele>
        <time>2024-05-18T09:03:21Z</time>
      </trkpt>
      <trkpt lat="45.44483" lon="5.21997">
        <ele>555.3</ele>
        <time>2024-05-18T09:03:34Z</time>
      </trkpt>
      <trkpt lat="45.44502" lon="5.22004">
        <ele>556.26</ele>
        <time>2024-05-18T09:03:46Z</time>
      </trkpt>
      <trkpt lat="45.44524" lon="5.22015">
        <ele>559.62</ele>
        <time>2024-05-18T09:04:02Z</time>
      </trkpt>
      <trkpt lat="45.44547" lon="5.2203">
        <ele>560.59</ele>
        <time>2024-05-18T09:04:16Z</time>
      </trkpt>
      <trkpt lat="45.44553" lon="5.22032">
        <ele>561.07</ele>
        <time>2024-05-18T09:04:20Z</time>
      </trkpt>
      <trkpt lat="45.44573" lon="5.22043">
        <ele>558.66</ele>
        <time>2024-05-18T09:04:34Z</time>
      </trkpt>
      <trkpt lat="45.44601" lon="5.22053">
        <ele>557.7</ele>
        <time>2024-05-18T09:04:52Z</time>
      </trkpt>
      <trkpt lat="45.44613" lon="5.22062">
        <ele>557.7</ele>
        <time>2024-05-18T09:04:59Z</time>
      </trkpt>
      <trkpt lat="45.44628" lon="5.2209">
        <ele>555.78</ele>
        <time>2024-05-18T09:05:15Z</time>
      </trkpt>
      <trkpt lat="45.44642" lon="5.22117">
        <ele>553.86</ele>
        <time>2024-05-18T09:05:31Z</time>
      </trkpt>
      <trkpt lat="45.44651" lon="5.22132">
        <ele>549.05</ele>
        <time>2024-05-18T09:05:44Z</time>
      </trkpt>
      <trkpt lat="45.44648" lon="5.22142">
        <ele>542.8</ele>
        <time>2024-05-18T09:06:08Z</time>
      </trkpt>
      <trkpt lat="45.44651" lon="5.22138">
        <ele>537.51</ele>
        <time>2024-05-18T09:06:37Z</time>
      </trkpt>
      <trkpt lat="45.44651" lon="5.22137">
        <ele>539.92</ele>
        <time>2024-05-18T09:07:09Z</time>
      </trkpt>
      <trkpt lat="45.44651" lon="5.22134">
        <ele>541.36</ele>
        <time>2024-05-18T09:07:33Z</time>
      </trkpt>
      <trkpt lat="45.44654" lon="5.22141">
        <ele>541.36</ele>
        <time>2024-05-18T09:08:07Z</time>
      </trkpt>
      <trkpt lat="45.44656" lon="5.22149">
        <ele>545.69</ele>
        <time>2024-05-18T09:08:38Z</time>
      </trkpt>
      <trkpt lat="45.44652" lon="5.22145">
        <ele>552.41</ele>
        <time>2024-05-18T09:09:09Z</time>
      </trkpt>
      <trkpt lat="45.44637" lon="5.22164">
        <ele>553.86</ele>
        <time>2024-05-18T09:09:30Z</time>
      </trkpt>
      <trkpt lat="45.44643" lon="5.22141">
        <ele>563.47</ele>
        <time>2024-05-18T09:09:46Z</time>
      </trkpt>
      <trkpt lat="45.44644" lon="5.22139">
        <ele>565.39</ele>
        <time>2024-05-18T09:10:05Z</time>
      </trkpt>
      <trkpt lat="45.4465" lon="5.22129">
        <ele>564.91</ele>
        <time>2024-05-18T09:10:23Z</time>
      </trkpt>
      <trkpt lat="45.44652" lon="5.22126">
        <ele>562.99</ele>
        <time>2024-05-18T09:10:43Z</time>
      </trkpt>
      <trkpt lat="45.44659" lon="5.22121">
        <ele>562.99</ele>
        <time>2024-05-18T09:11:09Z</time>
      </trkpt>
      <trkpt lat="45.4466" lon="5.22119">
        <ele>563.47</ele>
        <time>2024-05-18T09:11:11Z</time>
      </trkpt>
      <trkpt lat="45.44667" lon="5.22112">
        <ele>562.03</ele>
        <time>2024-05-18T09:11:16Z</time>
      </trkpt>
      <trkpt lat="45.44683" lon="5.22113">
        <ele>560.59</ele>
        <time>2024-05-18T09:11:29Z</time>
      </trkpt>
      <trkpt lat="45.44705" lon="5.2211">
        <ele>560.59</ele>
        <time>2024-05-18T09:11:46Z</time>
      </trkpt>
      <trkpt lat="45.44715" lon="5.22131">
        <ele>559.14</ele>
        <time>2024-05-18T09:12:00Z</time>
      </trkpt>
      <trkpt lat="45.44719" lon="5.2214">
        <ele>558.66</ele>
        <time>2024-05-18T09:12:05Z</time>
      </trkpt>
      <trkpt lat="45.44726" lon="5.22171">
        <ele>553.38</ele>
        <time>2024-05-18T09:12:22Z</time>
      </trkpt>
      <trkpt lat="45.44729" lon="5.22188">
        <ele>551.45</ele>
        <time>2024-05-18T09:12:31Z</time>
      </trkpt>
      <trkpt lat="45.44738" lon="5.22203">
        <ele>551.93</ele>
        <time>2024-05-18T09:12:44Z</time>
      </trkpt>
      <trkpt lat="45.44746" lon="5.22221">
        <ele>554.34</ele>
        <time>2024-05-18T09:12:59Z</time>
      </trkpt>
      <trkpt lat="45.44759" lon="5.22237">
        <ele>555.3</ele>
        <time>2024-05-18T09:13:10Z</time>
      </trkpt>
      <trkpt lat="45.44778" lon="5.22268">
        <ele>555.78</ele>
        <time>2024-05-18T09:13:24Z</time>
      </trkpt>
      <trkpt lat="45.44798" lon="5.22307">
        <ele>557.22</ele>
        <time>2024-05-18T09:13:47Z</time>
      </trkpt>
      <trkpt lat="45.44812" lon="5.22349">
        <ele>557.7</ele>
        <time>2024-05-18T09:14:06Z</time>
      </trkpt>
      <trkpt lat="45.44823" lon="5.22384">
        <ele>557.7</ele>
        <time>2024-05-18T09:14:25Z</time>
      </trkpt>
      <trkpt lat="45.44831" lon="5.22394">
        <ele>556.74</ele>
        <time>2024-05-18T09:14:33Z</time>
      </trkpt>
      <trkpt lat="45.44851" lon="5.2241">
        <ele>557.7</ele>
        <time>2024-05-18T09:14:47Z</time>
      </trkpt>
      <trkpt lat="45.4487" lon="5.2242">
        <ele>558.18</ele>
        <time>2024-05-18T09:15:00Z</time>
      </trkpt>
      <trkpt lat="45.44888" lon="5.2243">
        <ele>559.14</ele>
        <time>2024-05-18T09:15:10Z</time>
      </trkpt>
      <trkpt lat="45.44893" lon="5.22435">
        <ele>561.55</ele>
        <time>2024-05-18T09:15:25Z</time>
      </trkpt>
      <trkpt lat="45.44894" lon="5.22435">
        <ele>563.95</ele>
        <time>2024-05-18T09:15:50Z</time>
      </trkpt>
      <trkpt lat="45.44893" lon="5.22431">
        <ele>565.39</ele>
        <time>2024-05-18T09:16:06Z</time>
      </trkpt>
      <trkpt lat="45.44893" lon="5.22431">
        <ele>565.87</ele>
        <time>2024-05-18T09:16:28Z</time>
      </trkpt>
      <trkpt lat="45.44892" lon="5.2243">
        <ele>565.87</ele>
        <time>2024-05-18T09:16:58Z</time>
      </trkpt>
      <trkpt lat="45.44888" lon="5.22432">
        <ele>565.39</ele>
        <time>2024-05-18T09:17:14Z</time>
      </trkpt>
      <trkpt lat="45.44886" lon="5.22431">
        <ele>565.39</ele>
        <time>2024-05-18T09:17:22Z</time>
      </trkpt>
      <trkpt lat="45.44882" lon="5.22426">
        <ele>565.39</ele>
        <time>2024-05-18T09:17:27Z</time>
      </trkpt>
      <trkpt lat="45.44865" lon="5.22416">
        <ele>564.43</ele>
        <time>2024-05-18T09:17:43Z</time>
      </trkpt>
      <trkpt lat="45.44837" lon="5.224">
        <ele>562.51</ele>
        <time>2024-05-18T09:18:00Z</time>
      </trkpt>
      <trkpt lat="45.44809" lon="5.22394">
        <ele>562.99</ele>
        <time>2024-05-18T09:18:17Z</time>
      </trkpt>
      <trkpt lat="45.44781" lon="5.22405">
        <ele>562.51</ele>
        <time>2024-05-18T09:18:35Z</time>
      </trkpt>
      <trkpt lat="45.44752" lon="5.22419">
        <ele>560.59</ele>
        <time>2024-05-18T09:18:55Z</time>
      </trkpt>
      <trkpt lat="45.44726" lon="5.22428">
        <ele>557.7</ele>
        <time>2024-05-18T09:19:11Z</time>
      </trkpt>
      <trkpt lat="45.44702" lon="5.22433">
        <ele>556.26</ele>
        <time>2024-05-18T09:19:27Z</time>
      </trkpt>
      <trkpt lat="45.4468" lon="5.22442">
        <ele>554.82</ele>
        <time>2024-05-18T09:19:43Z</time>
      </trkpt>
      <trkpt lat="45.44664" lon="5.2245">
        <ele>551.45</ele>
        <time>2024-05-18T09:19:54Z</time>
      </trkpt>
      <trkpt lat="45.44637" lon="5.22456">
        <ele>549.53</ele>
        <time>2024-05-18T09:20:12Z</time>
      </trkpt>
      <trkpt lat="45.44633" lon="5.22457">
        <ele>549.05</ele>
        <time>2024-05-18T09:20:15Z</time>
      </trkpt>
      <trkpt lat="45.44609" lon="5.2245">
        <ele>548.57</ele>
        <time>2024-05-18T09:20:32Z</time>
      </trkpt>
      <trkpt lat="45.44583" lon="5.22449">
        <ele>546.65</ele>
        <time>2024-05-18T09:20:50Z</time>
      </trkpt>
      <trkpt lat="45.44563" lon="5.22443">
        <ele>546.17</ele>
        <time>2024-05-18T09:21:04Z</time>
      </trkpt>
      <trkpt lat="45.44538" lon="5.22437">
        <ele>546.65</ele>
        <time>2024-05-18T09:21:20Z</time>
      </trkpt>
      <trkpt lat="45.44514" lon="5.22431">
        <ele>545.69</ele>
        <time>2024-05-18T09:21:35Z</time>
      </trkpt>
      <trkpt lat="45.44484" lon="5.22423">
        <ele>545.2</ele>
        <time>2024-05-18T09:21:55Z</time>
      </trkpt>
      <trkpt lat="45.44462" lon="5.2242">
        <ele>542.32</ele>
        <time>2024-05-18T09:22:09Z</time>
      </trkpt>
      <trkpt lat="45.44438" lon="5.22412">
        <ele>540.4</ele>
        <time>2024-05-18T09:22:25Z</time>
      </trkpt>
      <trkpt lat="45.44418" lon="5.22409">
        <ele>536.55</ele>
        <time>2024-05-18T09:22:39Z</time>
      </trkpt>
      <trkpt lat="45.44406" lon="5.22406">
        <ele>535.11</ele>
        <time>2024-05-18T09:22:46Z</time>
      </trkpt>
      <trkpt lat="45.44393" lon="5.22384">
        <ele>533.67</ele>
        <time>2024-05-18T09:23:01Z</time>
      </trkpt>
      <trkpt lat="45.44375" lon="5.22376">
        <ele>531.75</ele>
        <time>2024-05-18T09:23:18Z</time>
      </trkpt>
      <trkpt lat="45.44353" lon="5.22375">
        <ele>534.15</ele>
        <time>2024-05-18T09:23:33Z</time>
      </trkpt>
      <trkpt lat="45.44325" lon="5.22382">
        <ele>533.67</ele>
        <time>2024-05-18T09:23:51Z</time>
      </trkpt>
      <trkpt lat="45.44305" lon="5.22387">
        <ele>529.82</ele>
        <time>2024-05-18T09:24:06Z</time>
      </trkpt>
      <trkpt lat="45.44281" lon="5.22394">
        <ele>524.54</ele>
        <time>2024-05-18T09:24:21Z</time>
      </trkpt>
      <trkpt lat="45.44261" lon="5.22404">
        <ele>521.17</ele>
        <time>2024-05-18T09:24:36Z</time>
      </trkpt>
      <trkpt lat="45.44229" lon="5.22413">
        <ele>518.77</ele>
        <time>2024-05-18T09:24:57Z</time>
      </trkpt>
      <trkpt lat="45.44212" lon="5.22425">
        <ele>514.92</ele>
        <time>2024-05-18T09:25:13Z</time>
      </trkpt>
      <trkpt lat="45.44206" lon="5.22428">
        <ele>513.96</ele>
        <time>2024-05-18T09:25:17Z</time>
      </trkpt>
      <trkpt lat="45.44187" lon="5.22426">
        <ele>512.52</ele>
        <time>2024-05-18T09:25:32Z</time>
      </trkpt>
      <trkpt lat="45.44181" lon="5.2242">
        <ele>517.81</ele>
        <time>2024-05-18T09:25:51Z</time>
      </trkpt>
      <trkpt lat="45.44178" lon="5.22424">
        <ele>517.81</ele>
        <time>2024-05-18T09:26:08Z</time>
      </trkpt>
      <trkpt lat="45.44168" lon="5.22441">
        <ele>516.37</ele>
        <time>2024-05-18T09:26:18Z</time>
      </trkpt>
      <trkpt lat="45.44145" lon="5.22454">
        <ele>512.52</ele>
        <time>2024-05-18T09:26:34Z</time>
      </trkpt>
      <trkpt lat="45.44114" lon="5.2246">
        <ele>510.12</ele>
        <time>2024-05-18T09:26:55Z</time>
      </trkpt>
      <trkpt lat="45.44095" lon="5.22464">
        <ele>505.31</ele>
        <time>2024-05-18T09:27:13Z</time>
      </trkpt>
      <trkpt lat="45.44095" lon="5.22466">
        <ele>504.83</ele>
        <time>2024-05-18T09:27:41Z</time>
      </trkpt>
      <trkpt lat="45.44087" lon="5.22463">
        <ele>504.83</ele>
        <time>2024-05-18T09:27:53Z</time>
      </trkpt>
      <trkpt lat="45.4408" lon="5.2246">
        <ele>503.87</ele>
        <time>2024-05-18T09:27:59Z</time>
      </trkpt>
      <trkpt lat="45.44072" lon="5.22458">
        <ele>501.46</ele>
        <time>2024-05-18T09:28:07Z</time>
      </trkpt>
      <trkpt lat="45.4405" lon="5.22444">
        <ele>497.14</ele>
        <time>2024-05-18T09:28:23Z</time>
      </trkpt>
      <trkpt lat="45.44034" lon="5.22439">
        <ele>493.77</ele>
        <time>2024-05-18T09:28:37Z</time>
      </trkpt>
      <trkpt lat="45.44035" lon="5.22441">
        <ele>493.29</ele>
        <time>2024-05-18T09:28:39Z</time>
      </trkpt>
      <trkpt lat="45.44036" lon="5.22446">
        <ele>493.77</ele>
        <time>2024-05-18T09:28:54Z</time>
      </trkpt>
      <trkpt lat="45.44032" lon="5.22445">
        <ele>496.18</ele>
        <time>2024-05-18T09:29:15Z</time>
      </trkpt>
      <trkpt lat="45.44033" lon="5.22446">
        <ele>493.77</ele>
        <time>2024-05-18T09:29:33Z</time>
      </trkpt>
      <trkpt lat="45.44028" lon="5.22442">
        <ele>493.29</ele>
        <time>2024-05-18T09:29:46Z</time>
      </trkpt>
      <trkpt lat="45.44029" lon="5.22443">
        <ele>492.33</ele>
        <time>2024-05-18T09:30:03Z</time>
      </trkpt>
      <trkpt lat="45.44022" lon="5.2244">
        <ele>491.85</ele>
        <time>2024-05-18T09:30:14Z</time>
      </trkpt>
      <trkpt lat="45.44021" lon="5.2244">
        <ele>491.37</ele>
        <time>2024-05-18T09:30:15Z</time>
      </trkpt>
      <trkpt lat="45.44004" lon="5.22436">
        <ele>487.05</ele>
        <time>2024-05-18T09:30:32Z</time>
      </trkpt>
      <trkpt lat="45.43985" lon="5.22436">
        <ele>482.24</ele>
        <time>2024-05-18T09:30:49Z</time>
      </trkpt>
      <trkpt lat="45.43958" lon="5.22436">
        <ele>477.91</ele>
        <time>2024-05-18T09:31:07Z</time>
      </trkpt>
      <trkpt lat="45.43936" lon="5.22435">
        <ele>475.51</ele>
        <time>2024-05-18T09:31:23Z</time>
      </trkpt>
      <trkpt lat="45.43903" lon="5.22423">
        <ele>472.14</ele>
        <time>2024-05-18T09:31:45Z</time>
      </trkpt>
      <trkpt lat="45.43874" lon="5.22414">
        <ele>468.3</ele>
        <time>2024-05-18T09:32:02Z</time>
      </trkpt>
      <trkpt lat="45.43853" lon="5.22412">
        <ele>464.93</ele>
        <time>2024-05-18T09:32:16Z</time>
      </trkpt>
      <trkpt lat="45.43827" lon="5.22425">
        <ele>463.97</ele>
        <time>2024-05-18T09:32:34Z</time>
      </trkpt>
      <trkpt lat="45.43799" lon="5.22441">
        <ele>466.38</ele>
        <time>2024-05-18T09:32:52Z</time>
      </trkpt>
      <trkpt lat="45.43774" lon="5.22453">
        <ele>467.82</ele>
        <time>2024-05-18T09:33:09Z</time>
      </trkpt>
      <trkpt lat="45.43748" lon="5.22471">
        <ele>465.9</ele>
        <time>2024-05-18T09:33:28Z</time>
      </trkpt>
      <trkpt lat="45.4374" lon="5.22476">
        <ele>465.42</ele>
        <time>2024-05-18T09:33:35Z</time>
      </trkpt>
      <trkpt lat="45.43707" lon="5.22491">
        <ele>463.49</ele>
        <time>2024-05-18T09:33:55Z</time>
      </trkpt>
      <trkpt lat="45.43677" lon="5.22498">
        <ele>463.97</ele>
        <time>2024-05-18T09:34:13Z</time>
      </trkpt>
      <trkpt lat="45.43637" lon="5.22493">
        <ele>463.49</ele>
        <time>2024-05-18T09:34:36Z</time>
      </trkpt>
      <trkpt lat="45.43611" lon="5.22483">
        <ele>463.97</ele>
        <time>2024-05-18T09:34:54Z</time>
      </trkpt>
      <trkpt lat="45.43588" lon="5.22477">
        <ele>462.53</ele>
        <time>2024-05-18T09:35:11Z</time>
      </trkpt>
      <trkpt lat="45.43586" lon="5.22477">
        <ele>462.05</ele>
        <time>2024-05-18T09:35:14Z</time>
      </trkpt>
      <trkpt lat="45.43572" lon="5.2248">
        <ele>461.57</ele>
        <time>2024-05-18T09:35:24Z</time>
      </trkpt>
      <trkpt lat="45.43533" lon="5.2249">
        <ele>460.61</ele>
        <time>2024-05-18T09:35:51Z</time>
      </trkpt>
      <trkpt lat="45.43499" lon="5.22502">
        <ele>461.57</ele>
        <time>2024-05-18T09:36:13Z</time>
      </trkpt>
      <trkpt lat="45.43468" lon="5.22508">
        <ele>462.05</ele>
        <time>2024-05-18T09:36:33Z</time>
      </trkpt>
      <trkpt lat="45.43432" lon="5.22504">
        <ele>460.61</ele>
        <time>2024-05-18T09:36:57Z</time>
      </trkpt>
      <trkpt lat="45.434" lon="5.22496">
        <ele>461.09</ele>
        <time>2024-05-18T09:37:18Z</time>
      </trkpt>
      <trkpt lat="45.43366" lon="5.22488">
        <ele>456.28</ele>
        <time>2024-05-18T09:37:40Z</time>
      </trkpt>
      <trkpt lat="45.43336" lon="5.2248">
        <ele>454.84</ele>
        <time>2024-05-18T09:38:01Z</time>
      </trkpt>
      <trkpt lat="45.43307" lon="5.22474">
        <ele>453.4</ele>
        <time>2024-05-18T09:38:20Z</time>
      </trkpt>
      <trkpt lat="45.43277" lon="5.2247">
        <ele>451.96</ele>
        <time>2024-05-18T09:38:40Z</time>
      </trkpt>
      <trkpt lat="45.43247" lon="5.22469">
        <ele>452.92</ele>
        <time>2024-05-18T09:38:59Z</time>
      </trkpt>
      <trkpt lat="45.43218" lon="5.22467">
        <ele>452.92</ele>
        <time>2024-05-18T09:39:18Z</time>
      </trkpt>
      <trkpt lat="45.432" lon="5.22485">
        <ele>452.44</ele>
        <time>2024-05-18T09:39:32Z</time>
      </trkpt>
      <trkpt lat="45.43202" lon="5.22521">
        <ele>454.36</ele>
        <time>2024-05-18T09:39:46Z</time>
      </trkpt>
      <trkpt lat="45.43205" lon="5.2255">
        <ele>455.8</ele>
        <time>2024-05-18T09:40:00Z</time>
      </trkpt>
      <trkpt lat="45.43217" lon="5.22591">
        <ele>456.28</ele>
        <time>2024-05-18T09:40:21Z</time>
      </trkpt>
      <trkpt lat="45.43219" lon="5.22601">
        <ele>455.8</ele>
        <time>2024-05-18T09:40:34Z</time>
      </trkpt>
      <trkpt lat="45.4322" lon="5.22605">
        <ele>456.28</ele>
        <time>2024-05-18T09:40:50Z</time>
      </trkpt>
      <trkpt lat="45.43224" lon="5.2262">
        <ele>455.8</ele>
        <time>2024-05-18T09:41:02Z</time>
      </trkpt>
      <trkpt lat="45.43229" lon="5.22621">
        <ele>453.88</ele>
        <time>2024-05-18T09:41:17Z</time>
      </trkpt>
      <trkpt lat="45.43231" lon="5.22621">
        <ele>453.4</ele>
        <time>2024-05-18T09:41:19Z</time>
      </trkpt>
      <trkpt lat="45.43253" lon="5.2262">
        <ele>451</ele>
        <time>2024-05-18T09:41:36Z</time>
      </trkpt>
      <trkpt lat="45.43264" lon="5.22624">
        <ele>447.63</ele>
        <time>2024-05-18T09:41:43Z</time>
      </trkpt>
      <trkpt lat="45.43271" lon="5.22657">
        <ele>444.75</ele>
        <time>2024-05-18T09:41:59Z</time>
      </trkpt>
      <trkpt lat="45.43277" lon="5.22696">
        <ele>447.15</ele>
        <time>2024-05-18T09:42:16Z</time>
      </trkpt>
      <trkpt lat="45.43285" lon="5.22733">
        <ele>449.07</ele>
        <time>2024-05-18T09:42:32Z</time>
      </trkpt>
      <trkpt lat="45.43303" lon="5.22772">
        <ele>449.55</ele>
        <time>2024-05-18T09:42:51Z</time>
      </trkpt>
      <trkpt lat="45.4331" lon="5.22786">
        <ele>449.07</ele>
        <time>2024-05-18T09:42:59Z</time>
      </trkpt>
      <trkpt lat="45.43311" lon="5.22787">
        <ele>449.07</ele>
        <time>2024-05-18T09:43:00Z</time>
      </trkpt>
      <trkpt lat="45.43312" lon="5.22787">
        <ele>449.07</ele>
        <time>2024-05-18T09:43:01Z</time>
      </trkpt>
      <trkpt lat="45.43314" lon="5.22787">
        <ele>449.07</ele>
        <time>2024-05-18T09:43:02Z</time>
      </trkpt>
      <trkpt lat="45.43315" lon="5.22787">
        <ele>449.07</ele>
        <time>2024-05-18T09:43:03Z</time>
      </trkpt>
      <trkpt lat="45.43317" lon="5.22786">
        <ele>449.07</ele>
        <time>2024-05-18T09:43:04Z</time>
      </trkpt>
      <trkpt lat="45.43318" lon="5.22786">
        <ele>449.07</ele>
        <time>2024-05-18T09:43:05Z</time>
      </trkpt>
      <trkpt lat="45.43319" lon="5.22785">
        <ele>449.07</ele>
        <time>2024-05-18T09:43:06Z</time>
      </trkpt>
      <trkpt lat="45.43343" lon="5.2277">
        <ele>448.59</ele>
        <time>2024-05-18T09:43:24Z</time>
      </trkpt>
      <trkpt lat="45.43372" lon="5.22753">
        <ele>448.11</ele>
        <time>2024-05-18T09:43:42Z</time>
      </trkpt>
      <trkpt lat="45.43395" lon="5.2274">
        <ele>449.55</ele>
        <time>2024-05-18T09:43:57Z</time>
      </trkpt>
      <trkpt lat="45.43418" lon="5.22725">
        <ele>450.52</ele>
        <time>2024-05-18T09:44:14Z</time>
      </trkpt>
      <trkpt lat="45.4344" lon="5.2271">
        <ele>451.48</ele>
        <time>2024-05-18T09:44:31Z</time>
      </trkpt>
      <trkpt lat="45.43458" lon="5.22696">
        <ele>450.03</ele>
        <time>2024-05-18T09:44:45Z</time>
      </trkpt>
      <trkpt lat="45.43461" lon="5.22695">
        <ele>449.55</ele>
        <time>2024-05-18T09:44:48Z</time>
      </trkpt>
      <trkpt lat="45.43483" lon="5.22681">
        <ele>450.52</ele>
        <time>2024-05-18T09:45:04Z</time>
      </trkpt>
      <trkpt lat="45.43512" lon="5.22677">
        <ele>451.96</ele>
        <time>2024-05-18T09:45:21Z</time>
      </trkpt>
      <trkpt lat="45.43527" lon="5.22673">
        <ele>453.4</ele>
        <time>2024-05-18T09:45:37Z</time>
      </trkpt>
      <trkpt lat="45.43527" lon="5.22672">
        <ele>455.32</ele>
        <time>2024-05-18T09:45:57Z</time>
      </trkpt>
      <trkpt lat="45.43546" lon="5.22674">
        <ele>454.84</ele>
        <time>2024-05-18T09:46:10Z</time>
      </trkpt>
      <trkpt lat="45.43573" lon="5.22677">
        <ele>453.88</ele>
        <time>2024-05-18T09:46:29Z</time>
      </trkpt>
      <trkpt lat="45.43601" lon="5.22681">
        <ele>451</ele>
        <time>2024-05-18T09:46:47Z</time>
      </trkpt>
      <trkpt lat="45.43628" lon="5.22693">
        <ele>454.36</ele>
        <time>2024-05-18T09:47:05Z</time>
      </trkpt>
      <trkpt lat="45.43653" lon="5.22708">
        <ele>452.92</ele>
        <time>2024-05-18T09:47:23Z</time>
      </trkpt>
      <trkpt lat="45.43655" lon="5.22708">
        <ele>452.44</ele>
        <time>2024-05-18T09:47:24Z</time>
      </trkpt>
      <trkpt lat="45.43656" lon="5.22709">
        <ele>452.44</ele>
        <time>2024-05-18T09:47:25Z</time>
      </trkpt>
      <trkpt lat="45.43688" lon="5.22724">
        <ele>454.84</ele>
        <time>2024-05-18T09:47:46Z</time>
      </trkpt>
      <trkpt lat="45.43711" lon="5.22736">
        <ele>459.65</ele>
        <time>2024-05-18T09:48:05Z</time>
      </trkpt>
      <trkpt lat="45.43728" lon="5.22753">
        <ele>460.61</ele>
        <time>2024-05-18T09:48:20Z</time>
      </trkpt>
      <trkpt lat="45.43754" lon="5.22776">
        <ele>460.61</ele>
        <time>2024-05-18T09:48:38Z</time>
      </trkpt>
      <trkpt lat="45.43779" lon="5.22797">
        <ele>459.17</ele>
        <time>2024-05-18T09:48:56Z</time>
      </trkpt>
      <trkpt lat="45.43799" lon="5.22824">
        <ele>457.24</ele>
        <time>2024-05-18T09:49:10Z</time>
      </trkpt>
      <trkpt lat="45.43817" lon="5.22846">
        <ele>457.24</ele>
        <time>2024-05-18T09:49:27Z</time>
      </trkpt>
      <trkpt lat="45.43838" lon="5.22883">
        <ele>461.57</ele>
        <time>2024-05-18T09:49:48Z</time>
      </trkpt>
      <trkpt lat="45.4386" lon="5.22912">
        <ele>464.93</ele>
        <time>2024-05-18T09:50:07Z</time>
      </trkpt>
      <trkpt lat="45.4387" lon="5.22922">
        <ele>465.42</ele>
        <time>2024-05-18T09:50:15Z</time>
      </trkpt>
      <trkpt lat="45.43875" lon="5.2293">
        <ele>464.93</ele>
        <time>2024-05-18T09:50:21Z</time>
      </trkpt>
      <trkpt lat="45.43876" lon="5.22931">
        <ele>464.93</ele>
        <time>2024-05-18T09:50:22Z</time>
      </trkpt>
      <trkpt lat="45.43877" lon="5.22933">
        <ele>464.93</ele>
        <time>2024-05-18T09:50:23Z</time>
      </trkpt>
      <trkpt lat="45.43896" lon="5.22962">
        <ele>465.9</ele>
        <time>2024-05-18T09:50:41Z</time>
      </trkpt>
      <trkpt lat="45.43918" lon="5.22978">
        <ele>468.3</ele>
        <time>2024-05-18T09:50:57Z</time>
      </trkpt>
      <trkpt lat="45.43944" lon="5.22986">
        <ele>468.78</ele>
        <time>2024-05-18T09:51:16Z</time>
      </trkpt>
      <trkpt lat="45.43964" lon="5.23">
        <ele>472.14</ele>
        <time>2024-05-18T09:51:32Z</time>
      </trkpt>
      <trkpt lat="45.43989" lon="5.23014">
        <ele>474.07</ele>
        <time>2024-05-18T09:51:49Z</time>
      </trkpt>
      <trkpt lat="45.44016" lon="5.23025">
        <ele>474.07</ele>
        <time>2024-05-18T09:52:07Z</time>
      </trkpt>
      <trkpt lat="45.44043" lon="5.23031">
        <ele>473.11</ele>
        <time>2024-05-18T09:52:24Z</time>
      </trkpt>
      <trkpt lat="45.44067" lon="5.23042">
        <ele>473.59</ele>
        <time>2024-05-18T09:52:37Z</time>
      </trkpt>
      <trkpt lat="45.44096" lon="5.23051">
        <ele>474.07</ele>
        <time>2024-05-18T09:52:57Z</time>
      </trkpt>
      <trkpt lat="45.44118" lon="5.23064">
        <ele>475.03</ele>
        <time>2024-05-18T09:53:13Z</time>
      </trkpt>
      <trkpt lat="45.44144" lon="5.23079">
        <ele>476.95</ele>
        <time>2024-05-18T09:53:31Z</time>
      </trkpt>
      <trkpt lat="45.44164" lon="5.23089">
        <ele>476.47</ele>
        <time>2024-05-18T09:53:42Z</time>
      </trkpt>
      <trkpt lat="45.44181" lon="5.23093">
        <ele>477.91</ele>
        <time>2024-05-18T09:53:54Z</time>
      </trkpt>
      <trkpt lat="45.44208" lon="5.23109">
        <ele>478.39</ele>
        <time>2024-05-18T09:54:12Z</time>
      </trkpt>
      <trkpt lat="45.4423" lon="5.23133">
        <ele>475.99</ele>
        <time>2024-05-18T09:54:30Z</time>
      </trkpt>
      <trkpt lat="45.44244" lon="5.23157">
        <ele>474.55</ele>
        <time>2024-05-18T09:54:44Z</time>
      </trkpt>
      <trkpt lat="45.44266" lon="5.2317">
        <ele>475.03</ele>
        <time>2024-05-18T09:54:56Z</time>
      </trkpt>
      <trkpt lat="45.44271" lon="5.23171">
        <ele>475.03</ele>
        <time>2024-05-18T09:55:00Z</time>
      </trkpt>
      <trkpt lat="45.44292" lon="5.23178">
        <ele>476.47</ele>
        <time>2024-05-18T09:55:14Z</time>
      </trkpt>
      <trkpt lat="45.44314" lon="5.23192">
        <ele>476.47</ele>
        <time>2024-05-18T09:55:30Z</time>
      </trkpt>
      <trkpt lat="45.44347" lon="5.23199">
        <ele>477.43</ele>
        <time>2024-05-18T09:55:51Z</time>
      </trkpt>
      <trkpt lat="45.44373" lon="5.23203">
        <ele>479.35</ele>
        <time>2024-05-18T09:56:08Z</time>
      </trkpt>
      <trkpt lat="45.44395" lon="5.23218">
        <ele>482.24</ele>
        <time>2024-05-18T09:56:25Z</time>
      </trkpt>
      <trkpt lat="45.44416" lon="5.23233">
        <ele>483.2</ele>
        <time>2024-05-18T09:56:39Z</time>
      </trkpt>
      <trkpt lat="45.44428" lon="5.2324">
        <ele>483.68</ele>
        <time>2024-05-18T09:56:48Z</time>
      </trkpt>
      <trkpt lat="45.44457" lon="5.23246">
        <ele>485.12</ele>
        <time>2024-05-18T09:57:05Z</time>
      </trkpt>
      <trkpt lat="45.44484" lon="5.2325">
        <ele>487.05</ele>
        <time>2024-05-18T09:57:21Z</time>
      </trkpt>
      <trkpt lat="45.4451" lon="5.23262">
        <ele>488.49</ele>
        <time>2024-05-18T09:57:36Z</time>
      </trkpt>
      <trkpt lat="45.44536" lon="5.23287">
        <ele>488.01</ele>
        <time>2024-05-18T09:57:56Z</time>
      </trkpt>
      <trkpt lat="45.4455" lon="5.23303">
        <ele>489.93</ele>
        <time>2024-05-18T09:58:11Z</time>
      </trkpt>
      <trkpt lat="45.44568" lon="5.23333">
        <ele>493.77</ele>
        <time>2024-05-18T09:58:28Z</time>
      </trkpt>
      <trkpt lat="45.44588" lon="5.2335">
        <ele>498.1</ele>
        <time>2024-05-18T09:58:45Z</time>
      </trkpt>
      <trkpt lat="45.44605" lon="5.23372">
        <ele>500.98</ele>
        <time>2024-05-18T09:59:03Z</time>
      </trkpt>
      <trkpt lat="45.44625" lon="5.23403">
        <ele>500.98</ele>
        <time>2024-05-18T09:59:20Z</time>
      </trkpt>
      <trkpt lat="45.44649" lon="5.2343">
        <ele>498.58</ele>
        <time>2024-05-18T09:59:39Z</time>
      </trkpt>
      <trkpt lat="45.44674" lon="5.23452">
        <ele>496.66</ele>
        <time>2024-05-18T09:59:57Z</time>
      </trkpt>
      <trkpt lat="45.44695" lon="5.23463">
        <ele>493.77</ele>
        <time>2024-05-18T10:00:13Z</time>
      </trkpt>
      <trkpt lat="45.44696" lon="5.23464">
        <ele>493.29</ele>
        <time>2024-05-18T10:00:14Z</time>
      </trkpt>
      <trkpt lat="45.44715" lon="5.23482">
        <ele>491.37</ele>
        <time>2024-05-18T10:00:29Z</time>
      </trkpt>
      <trkpt lat="45.44742" lon="5.23499">
        <ele>494.26</ele>
        <time>2024-05-18T10:00:48Z</time>
      </trkpt>
      <trkpt lat="45.44752" lon="5.23505">
        <ele>495.22</ele>
        <time>2024-05-18T10:00:56Z</time>
      </trkpt>
      <trkpt lat="45.44768" lon="5.23521">
        <ele>496.66</ele>
        <time>2024-05-18T10:01:11Z</time>
      </trkpt>
      <trkpt lat="45.44763" lon="5.23513">
        <ele>499.54</ele>
        <time>2024-05-18T10:01:24Z</time>
      </trkpt>
      <trkpt lat="45.44757" lon="5.23516">
        <ele>501.95</ele>
        <time>2024-05-18T10:01:50Z</time>
      </trkpt>
      <trkpt lat="45.44759" lon="5.23515">
        <ele>502.43</ele>
        <time>2024-05-18T10:01:56Z</time>
      </trkpt>
      <trkpt lat="45.44747" lon="5.23497">
        <ele>502.43</ele>
        <time>2024-05-18T10:02:11Z</time>
      </trkpt>
      <trkpt lat="45.44749" lon="5.23491">
        <ele>503.87</ele>
        <time>2024-05-18T10:02:18Z</time>
      </trkpt>
      <trkpt lat="45.44772" lon="5.23487">
        <ele>504.35</ele>
        <time>2024-05-18T10:02:33Z</time>
      </trkpt>
      <trkpt lat="45.44791" lon="5.23493">
        <ele>506.75</ele>
        <time>2024-05-18T10:02:46Z</time>
      </trkpt>
      <trkpt lat="45.44816" lon="5.23507">
        <ele>507.71</ele>
        <time>2024-05-18T10:03:02Z</time>
      </trkpt>
      <trkpt lat="45.44837" lon="5.23521">
        <ele>502.43</ele>
        <time>2024-05-18T10:03:17Z</time>
      </trkpt>
      <trkpt lat="45.44854" lon="5.23532">
        <ele>497.62</ele>
        <time>2024-05-18T10:03:30Z</time>
      </trkpt>
      <trkpt lat="45.44878" lon="5.23538">
        <ele>495.7</ele>
        <time>2024-05-18T10:03:44Z</time>
      </trkpt>
      <trkpt lat="45.44905" lon="5.23539">
        <ele>497.14</ele>
        <time>2024-05-18T10:03:59Z</time>
      </trkpt>
      <trkpt lat="45.44928" lon="5.23545">
        <ele>496.18</ele>
        <time>2024-05-18T10:04:16Z</time>
      </trkpt>
      <trkpt lat="45.44951" lon="5.23566">
        <ele>498.1</ele>
        <time>2024-05-18T10:04:33Z</time>
      </trkpt>
      <trkpt lat="45.44968" lon="5.23601">
        <ele>500.5</ele>
        <time>2024-05-18T10:04:51Z</time>
      </trkpt>
      <trkpt lat="45.44979" lon="5.23637">
        <ele>505.79</ele>
        <time>2024-05-18T10:05:07Z</time>
      </trkpt>
      <trkpt lat="45.44981" lon="5.23657">
        <ele>506.27</ele>
        <time>2024-05-18T10:05:16Z</time>
      </trkpt>
      <trkpt lat="45.44988" lon="5.23697">
        <ele>508.19</ele>
        <time>2024-05-18T10:05:35Z</time>
      </trkpt>
      <trkpt lat="45.44996" lon="5.23731">
        <ele>509.16</ele>
        <time>2024-05-18T10:05:50Z</time>
      </trkpt>
      <trkpt lat="45.44998" lon="5.2374">
        <ele>509.16</ele>
        <time>2024-05-18T10:05:54Z</time>
      </trkpt>
      <trkpt lat="45.45012" lon="5.23771">
        <ele>511.56</ele>
        <time>2024-05-18T10:06:11Z</time>
      </trkpt>
      <trkpt lat="45.45023" lon="5.23804">
        <ele>510.6</ele>
        <time>2024-05-18T10:06:25Z</time>
      </trkpt>
      <trkpt lat="45.45028" lon="5.23841">
        <ele>507.71</ele>
        <time>2024-05-18T10:06:43Z</time>
      </trkpt>
      <trkpt lat="45.4503" lon="5.23877">
        <ele>510.12</ele>
        <time>2024-05-18T10:06:58Z</time>
      </trkpt>
      <trkpt lat="45.45033" lon="5.23901">
        <ele>514.92</ele>
        <time>2024-05-18T10:07:09Z</time>
      </trkpt>
      <trkpt lat="45.45037" lon="5.23907">
        <ele>515.88</ele>
        <time>2024-05-18T10:07:13Z</time>
      </trkpt>
      <trkpt lat="45.4506" lon="5.23916">
        <ele>515.4</ele>
        <time>2024-05-18T10:07:29Z</time>
      </trkpt>
      <trkpt lat="45.45065" lon="5.23912">
        <ele>511.56</ele>
        <time>2024-05-18T10:07:43Z</time>
      </trkpt>
      <trkpt lat="45.4507" lon="5.23917">
        <ele>509.64</ele>
        <time>2024-05-18T10:08:06Z</time>
      </trkpt>
      <trkpt lat="45.45071" lon="5.23918">
        <ele>510.12</ele>
        <time>2024-05-18T10:08:07Z</time>
      </trkpt>
      <trkpt lat="45.45087" lon="5.23923">
        <ele>511.08</ele>
        <time>2024-05-18T10:08:25Z</time>
      </trkpt>
      <trkpt lat="45.45098" lon="5.23927">
        <ele>509.64</ele>
        <time>2024-05-18T10:08:43Z</time>
      </trkpt>
      <trkpt lat="45.45107" lon="5.2393">
        <ele>510.6</ele>
        <time>2024-05-18T10:08:58Z</time>
      </trkpt>
      <trkpt lat="45.45105" lon="5.23929">
        <ele>512.04</ele>
        <time>2024-05-18T10:09:19Z</time>
      </trkpt>
      <trkpt lat="45.45101" lon="5.2392">
        <ele>514.92</ele>
        <time>2024-05-18T10:09:51Z</time>
      </trkpt>
      <trkpt lat="45.45099" lon="5.23916">
        <ele>520.21</ele>
        <time>2024-05-18T10:10:25Z</time>
      </trkpt>
      <trkpt lat="45.45099" lon="5.2392">
        <ele>524.54</ele>
        <time>2024-05-18T10:10:56Z</time>
      </trkpt>
      <trkpt lat="45.45104" lon="5.23926">
        <ele>524.06</ele>
        <time>2024-05-18T10:11:28Z</time>
      </trkpt>
      <trkpt lat="45.45104" lon="5.23924">
        <ele>525.02</ele>
        <time>2024-05-18T10:11:58Z</time>
      </trkpt>
      <trkpt lat="45.45105" lon="5.23931">
        <ele>523.58</ele>
        <time>2024-05-18T10:12:32Z</time>
      </trkpt>
      <trkpt lat="45.45112" lon="5.23936">
        <ele>517.81</ele>
        <time>2024-05-18T10:13:01Z</time>
      </trkpt>
      <trkpt lat="45.45132" lon="5.23932">
        <ele>518.77</ele>
        <time>2024-05-18T10:13:16Z</time>
      </trkpt>
      <trkpt lat="45.45154" lon="5.23927">
        <ele>514.92</ele>
        <time>2024-05-18T10:13:31Z</time>
      </trkpt>
      <trkpt lat="45.45175" lon="5.23913">
        <ele>515.4</ele>
        <time>2024-05-18T10:13:45Z</time>
      </trkpt>
      <trkpt lat="45.45202" lon="5.239">
        <ele>516.37</ele>
        <time>2024-05-18T10:14:02Z</time>
      </trkpt>
      <trkpt lat="45.45232" lon="5.23893">
        <ele>518.29</ele>
        <time>2024-05-18T10:14:20Z</time>
      </trkpt>
      <trkpt lat="45.45251" lon="5.23894">
        <ele>523.58</ele>
        <time>2024-05-18T10:14:34Z</time>
      </trkpt>
      <trkpt lat="45.45279" lon="5.23898">
        <ele>524.54</ele>
        <time>2024-05-18T10:14:52Z</time>
      </trkpt>
      <trkpt lat="45.45298" lon="5.23889">
        <ele>525.5</ele>
        <time>2024-05-18T10:15:04Z</time>
      </trkpt>
      <trkpt lat="45.4531" lon="5.23885">
        <ele>527.42</ele>
        <time>2024-05-18T10:15:14Z</time>
      </trkpt>
      <trkpt lat="45.45324" lon="5.23888">
        <ele>524.06</ele>
        <time>2024-05-18T10:15:23Z</time>
      </trkpt>
      <trkpt lat="45.45348" lon="5.23892">
        <ele>523.58</ele>
        <time>2024-05-18T10:15:37Z</time>
      </trkpt>
      <trkpt lat="45.45376" lon="5.23901">
        <ele>521.65</ele>
        <time>2024-05-18T10:15:55Z</time>
      </trkpt>
      <trkpt lat="45.45404" lon="5.23908">
        <ele>519.25</ele>
        <time>2024-05-18T10:16:12Z</time>
      </trkpt>
      <trkpt lat="45.45425" lon="5.23914">
        <ele>519.73</ele>
        <time>2024-05-18T10:16:27Z</time>
      </trkpt>
      <trkpt lat="45.45436" lon="5.23933">
        <ele>520.69</ele>
        <time>2024-05-18T10:16:41Z</time>
      </trkpt>
      <trkpt lat="45.45444" lon="5.23954">
        <ele>522.61</ele>
        <time>2024-05-18T10:16:55Z</time>
      </trkpt>
      <trkpt lat="45.45446" lon="5.23964">
        <ele>522.13</ele>
        <time>2024-05-18T10:17:17Z</time>
      </trkpt>
      <trkpt lat="45.45448" lon="5.23976">
        <ele>515.4</ele>
        <time>2024-05-18T10:17:37Z</time>
      </trkpt>
      <trkpt lat="45.45456" lon="5.23987">
        <ele>515.4</ele>
        <time>2024-05-18T10:17:57Z</time>
      </trkpt>
      <trkpt lat="45.45472" lon="5.24009">
        <ele>521.65</ele>
        <time>2024-05-18T10:18:13Z</time>
      </trkpt>
      <trkpt lat="45.4549" lon="5.24035">
        <ele>525.98</ele>
        <time>2024-05-18T10:18:30Z</time>
      </trkpt>
      <trkpt lat="45.45504" lon="5.2407">
        <ele>531.27</ele>
        <time>2024-05-18T10:18:48Z</time>
      </trkpt>
      <trkpt lat="45.45517" lon="5.241">
        <ele>529.82</ele>
        <time>2024-05-18T10:19:04Z</time>
      </trkpt>
      <trkpt lat="45.45525" lon="5.24123">
        <ele>528.38</ele>
        <time>2024-05-18T10:19:16Z</time>
      </trkpt>
      <trkpt lat="45.45533" lon="5.24162">
        <ele>529.82</ele>
        <time>2024-05-18T10:19:31Z</time>
      </trkpt>
      <trkpt lat="45.45539" lon="5.24174">
        <ele>531.27</ele>
        <time>2024-05-18T10:19:37Z</time>
      </trkpt>
      <trkpt lat="45.45546" lon="5.24207">
        <ele>535.11</ele>
        <time>2024-05-18T10:19:52Z</time>
      </trkpt>
      <trkpt lat="45.45542" lon="5.24243">
        <ele>542.8</ele>
        <time>2024-05-18T10:20:08Z</time>
      </trkpt>
      <trkpt lat="45.45542" lon="5.24247">
        <ele>543.76</ele>
        <time>2024-05-18T10:20:10Z</time>
      </trkpt>
      <trkpt lat="45.45543" lon="5.24277">
        <ele>545.69</ele>
        <time>2024-05-18T10:20:26Z</time>
      </trkpt>
      <trkpt lat="45.45538" lon="5.24299">
        <ele>550.01</ele>
        <time>2024-05-18T10:20:36Z</time>
      </trkpt>
      <trkpt lat="45.45513" lon="5.24309">
        <ele>559.62</ele>
        <time>2024-05-18T10:20:52Z</time>
      </trkpt>
      <trkpt lat="45.45508" lon="5.24321">
        <ele>561.55</ele>
        <time>2024-05-18T10:20:59Z</time>
      </trkpt>
      <trkpt lat="45.45503" lon="5.24358">
        <ele>562.03</ele>
        <time>2024-05-18T10:21:17Z</time>
      </trkpt>
      <trkpt lat="45.45504" lon="5.2437">
        <ele>562.99</ele>
        <time>2024-05-18T10:21:26Z</time>
      </trkpt>
      <trkpt lat="45.45505" lon="5.24383">
        <ele>562.03</ele>
        <time>2024-05-18T10:21:35Z</time>
      </trkpt>
      <trkpt lat="45.45507" lon="5.24411">
        <ele>557.22</ele>
        <time>2024-05-18T10:21:49Z</time>
      </trkpt>
      <trkpt lat="45.45515" lon="5.24428">
        <ele>554.82</ele>
        <time>2024-05-18T10:22:02Z</time>
      </trkpt>
      <trkpt lat="45.45515" lon="5.2443">
        <ele>554.82</ele>
        <time>2024-05-18T10:22:03Z</time>
      </trkpt>
      <trkpt lat="45.45506" lon="5.24457">
        <ele>555.3</ele>
        <time>2024-05-18T10:22:18Z</time>
      </trkpt>
      <trkpt lat="45.45501" lon="5.24472">
        <ele>555.78</ele>
        <time>2024-05-18T10:22:25Z</time>
      </trkpt>
      <trkpt lat="45.45488" lon="5.2449">
        <ele>556.26</ele>
        <time>2024-05-18T10:22:37Z</time>
      </trkpt>
      <trkpt lat="45.45483" lon="5.24522">
        <ele>557.22</ele>
        <time>2024-05-18T10:22:52Z</time>
      </trkpt>
      <trkpt lat="45.45472" lon="5.24553">
        <ele>561.07</ele>
        <time>2024-05-18T10:23:07Z</time>
      </trkpt>
      <trkpt lat="45.45457" lon="5.24569">
        <ele>565.39</ele>
        <time>2024-05-18T10:23:21Z</time>
      </trkpt>
      <trkpt lat="45.45441" lon="5.24574">
        <ele>567.8</ele>
        <time>2024-05-18T10:23:33Z</time>
      </trkpt>
      <trkpt lat="45.45418" lon="5.24579">
        <ele>572.12</ele>
        <time>2024-05-18T10:23:49Z</time>
      </trkpt>
      <trkpt lat="45.45395" lon="5.24582">
        <ele>577.41</ele>
        <time>2024-05-18T10:24:05Z</time>
      </trkpt>
      <trkpt lat="45.45371" lon="5.24591">
        <ele>582.22</ele>
        <time>2024-05-18T10:24:19Z</time>
      </trkpt>
      <trkpt lat="45.4535" lon="5.24607">
        <ele>585.1</ele>
        <time>2024-05-18T10:24:34Z</time>
      </trkpt>
      <trkpt lat="45.4534" lon="5.24634">
        <ele>587.02</ele>
        <time>2024-05-18T10:24:50Z</time>
      </trkpt>
      <trkpt lat="45.45341" lon="5.24643">
        <ele>588.95</ele>
        <time>2024-05-18T10:25:02Z</time>
      </trkpt>
      <trkpt lat="45.45341" lon="5.24644">
        <ele>589.43</ele>
        <time>2024-05-18T10:25:20Z</time>
      </trkpt>
      <trkpt lat="45.45343" lon="5.24643">
        <ele>591.35</ele>
        <time>2024-05-18T10:25:43Z</time>
      </trkpt>
      <trkpt lat="45.45343" lon="5.24644">
        <ele>590.87</ele>
        <time>2024-05-18T10:26:04Z</time>
      </trkpt>
      <trkpt lat="45.45344" lon="5.24645">
        <ele>592.31</ele>
        <time>2024-05-18T10:26:30Z</time>
      </trkpt>
      <trkpt lat="45.45344" lon="5.24644">
        <ele>591.83</ele>
        <time>2024-05-18T10:26:56Z</time>
      </trkpt>
      <trkpt lat="45.45344" lon="5.24646">
        <ele>595.19</ele>
        <time>2024-05-18T10:27:26Z</time>
      </trkpt>
      <trkpt lat="45.45346" lon="5.24647">
        <ele>594.71</ele>
        <time>2024-05-18T10:27:44Z</time>
      </trkpt>
      <trkpt lat="45.45341" lon="5.24654">
        <ele>593.27</ele>
        <time>2024-05-18T10:28:04Z</time>
      </trkpt>
      <trkpt lat="45.45342" lon="5.24667">
        <ele>593.75</ele>
        <time>2024-05-18T10:28:30Z</time>
      </trkpt>
      <trkpt lat="45.45349" lon="5.247">
        <ele>594.23</ele>
        <time>2024-05-18T10:28:46Z</time>
      </trkpt>
      <trkpt lat="45.45352" lon="5.24741">
        <ele>587.02</ele>
        <time>2024-05-18T10:29:02Z</time>
      </trkpt>
      <trkpt lat="45.45353" lon="5.24771">
        <ele>584.14</ele>
        <time>2024-05-18T10:29:17Z</time>
      </trkpt>
      <trkpt lat="45.45349" lon="5.2481">
        <ele>585.1</ele>
        <time>2024-05-18T10:29:34Z</time>
      </trkpt>
      <trkpt lat="45.45346" lon="5.24836">
        <ele>587.98</ele>
        <time>2024-05-18T10:29:47Z</time>
      </trkpt>
      <trkpt lat="45.45341" lon="5.2487">
        <ele>588.95</ele>
        <time>2024-05-18T10:30:02Z</time>
      </trkpt>
      <trkpt lat="45.45337" lon="5.24902">
        <ele>589.43</ele>
        <time>2024-05-18T10:30:16Z</time>
      </trkpt>
      <trkpt lat="45.45323" lon="5.24943">
        <ele>587.02</ele>
        <time>2024-05-18T10:30:35Z</time>
      </trkpt>
      <trkpt lat="45.45296" lon="5.24964">
        <ele>587.02</ele>
        <time>2024-05-18T10:30:54Z</time>
      </trkpt>
      <trkpt lat="45.45282" lon="5.24975">
        <ele>586.06</ele>
        <time>2024-05-18T10:31:06Z</time>
      </trkpt>
      <trkpt lat="45.45267" lon="5.25005">
        <ele>587.98</ele>
        <time>2024-05-18T10:31:21Z</time>
      </trkpt>
      <trkpt lat="45.45247" lon="5.2503">
        <ele>589.43</ele>
        <time>2024-05-18T10:31:37Z</time>
      </trkpt>
      <trkpt lat="45.45222" lon="5.25051">
        <ele>589.43</ele>
        <time>2024-05-18T10:31:54Z</time>
      </trkpt>
      <trkpt lat="45.45211" lon="5.25098">
        <ele>590.39</ele>
        <time>2024-05-18T10:32:13Z</time>
      </trkpt>
      <trkpt lat="45.45201" lon="5.25143">
        <ele>591.83</ele>
        <time>2024-05-18T10:32:33Z</time>
      </trkpt>
      <trkpt lat="45.45194" lon="5.25183">
        <ele>589.43</ele>
        <time>2024-05-18T10:32:52Z</time>
      </trkpt>
      <trkpt lat="45.45181" lon="5.25212">
        <ele>589.91</ele>
        <time>2024-05-18T10:33:08Z</time>
      </trkpt>
      <trkpt lat="45.45165" lon="5.25226">
        <ele>589.43</ele>
        <time>2024-05-18T10:33:22Z</time>
      </trkpt>
      <trkpt lat="45.45145" lon="5.25247">
        <ele>590.87</ele>
        <time>2024-05-18T10:33:38Z</time>
      </trkpt>
      <trkpt lat="45.45127" lon="5.2527">
        <ele>589.91</ele>
        <time>2024-05-18T10:33:53Z</time>
      </trkpt>
      <trkpt lat="45.45105" lon="5.25294">
        <ele>589.91</ele>
        <time>2024-05-18T10:34:09Z</time>
      </trkpt>
      <trkpt lat="45.45091" lon="5.25321">
        <ele>590.87</ele>
        <time>2024-05-18T10:34:24Z</time>
      </trkpt>
      <trkpt lat="45.4507" lon="5.25345">
        <ele>591.83</ele>
        <time>2024-05-18T10:34:41Z</time>
      </trkpt>
      <trkpt lat="45.45065" lon="5.25349">
        <ele>591.83</ele>
        <time>2024-05-18T10:34:45Z</time>
      </trkpt>
      <trkpt lat="45.45066" lon="5.25354">
        <ele>592.31</ele>
        <time>2024-05-18T10:34:48Z</time>
      </trkpt>
      <trkpt lat="45.45085" lon="5.25357">
        <ele>592.79</ele>
        <time>2024-05-18T10:35:03Z</time>
      </trkpt>
      <trkpt lat="45.45109" lon="5.25359">
        <ele>591.83</ele>
        <time>2024-05-18T10:35:18Z</time>
      </trkpt>
      <trkpt lat="45.45124" lon="5.25379">
        <ele>590.39</ele>
        <time>2024-05-18T10:35:32Z</time>
      </trkpt>
      <trkpt lat="45.45137" lon="5.25399">
        <ele>588.46</ele>
        <time>2024-05-18T10:35:44Z</time>
      </trkpt>
      <trkpt lat="45.45151" lon="5.2542">
        <ele>586.54</ele>
        <time>2024-05-18T10:35:57Z</time>
      </trkpt>
      <trkpt lat="45.45167" lon="5.25449">
        <ele>587.5</ele>
        <time>2024-05-18T10:36:15Z</time>
      </trkpt>
      <trkpt lat="45.45179" lon="5.25473">
        <ele>588.46</ele>
        <time>2024-05-18T10:36:29Z</time>
      </trkpt>
      <trkpt lat="45.45192" lon="5.25501">
        <ele>587.98</ele>
        <time>2024-05-18T10:36:46Z</time>
      </trkpt>
      <trkpt lat="45.45193" lon="5.25503">
        <ele>587.98</ele>
        <time>2024-05-18T10:36:47Z</time>
      </trkpt>
      <trkpt lat="45.45204" lon="5.2553">
        <ele>586.06</ele>
        <time>2024-05-18T10:37:03Z</time>
      </trkpt>
      <trkpt lat="45.45219" lon="5.25561">
        <ele>585.58</ele>
        <time>2024-05-18T10:37:19Z</time>
      </trkpt>
      <trkpt lat="45.45225" lon="5.25568">
        <ele>584.62</ele>
        <time>2024-05-18T10:37:25Z</time>
      </trkpt>
      <trkpt lat="45.45252" lon="5.25574">
        <ele>580.29</ele>
        <time>2024-05-18T10:37:42Z</time>
      </trkpt>
      <trkpt lat="45.45273" lon="5.25572">
        <ele>581.25</ele>
        <time>2024-05-18T10:37:55Z</time>
      </trkpt>
      <trkpt lat="45.45296" lon="5.25558">
        <ele>588.95</ele>
        <time>2024-05-18T10:38:10Z</time>
      </trkpt>
      <trkpt lat="45.45319" lon="5.25544">
        <ele>591.35</ele>
        <time>2024-05-18T10:38:26Z</time>
      </trkpt>
      <trkpt lat="45.45341" lon="5.25541">
        <ele>591.83</ele>
        <time>2024-05-18T10:38:41Z</time>
      </trkpt>
      <trkpt lat="45.4536" lon="5.25558">
        <ele>593.75</ele>
        <time>2024-05-18T10:38:56Z</time>
      </trkpt>
      <trkpt lat="45.45375" lon="5.2558">
        <ele>592.79</ele>
        <time>2024-05-18T10:39:12Z</time>
      </trkpt>
      <trkpt lat="45.45396" lon="5.2561">
        <ele>591.35</ele>
        <time>2024-05-18T10:39:29Z</time>
      </trkpt>
      <trkpt lat="45.45403" lon="5.25617">
        <ele>591.35</ele>
        <time>2024-05-18T10:39:33Z</time>
      </trkpt>
      <trkpt lat="45.45419" lon="5.25635">
        <ele>588.95</ele>
        <time>2024-05-18T10:39:49Z</time>
      </trkpt>
      <trkpt lat="45.45439" lon="5.25661">
        <ele>589.91</ele>
        <time>2024-05-18T10:40:05Z</time>
      </trkpt>
      <trkpt lat="45.45453" lon="5.25674">
        <ele>589.43</ele>
        <time>2024-05-18T10:40:17Z</time>
      </trkpt>
      <trkpt lat="45.45475" lon="5.25685">
        <ele>586.54</ele>
        <time>2024-05-18T10:40:32Z</time>
      </trkpt>
      <trkpt lat="45.45504" lon="5.25685">
        <ele>579.81</ele>
        <time>2024-05-18T10:40:51Z</time>
      </trkpt>
      <trkpt lat="45.45532" lon="5.25682">
        <ele>567.8</ele>
        <time>2024-05-18T10:41:09Z</time>
      </trkpt>
      <trkpt lat="45.45559" lon="5.25686">
        <ele>568.76</ele>
        <time>2024-05-18T10:41:26Z</time>
      </trkpt>
      <trkpt lat="45.45583" lon="5.25703">
        <ele>573.56</ele>
        <time>2024-05-18T10:41:40Z</time>
      </trkpt>
      <trkpt lat="45.45606" lon="5.25712">
        <ele>576.93</ele>
        <time>2024-05-18T10:41:54Z</time>
      </trkpt>
      <trkpt lat="45.45632" lon="5.25705">
        <ele>582.7</ele>
        <time>2024-05-18T10:42:09Z</time>
      </trkpt>
      <trkpt lat="45.45657" lon="5.25694">
        <ele>583.18</ele>
        <time>2024-05-18T10:42:25Z</time>
      </trkpt>
      <trkpt lat="45.45679" lon="5.25683">
        <ele>580.77</ele>
        <time>2024-05-18T10:42:40Z</time>
      </trkpt>
      <trkpt lat="45.45698" lon="5.25672">
        <ele>583.66</ele>
        <time>2024-05-18T10:42:52Z</time>
      </trkpt>
      <trkpt lat="45.45721" lon="5.25649">
        <ele>590.39</ele>
        <time>2024-05-18T10:43:08Z</time>
      </trkpt>
      <trkpt lat="45.45743" lon="5.25648">
        <ele>596.15</ele>
        <time>2024-05-18T10:43:23Z</time>
      </trkpt>
      <trkpt lat="45.45768" lon="5.25653">
        <ele>595.67</ele>
        <time>2024-05-18T10:43:39Z</time>
      </trkpt>
      <trkpt lat="45.4579" lon="5.25666">
        <ele>589.91</ele>
        <time>2024-05-18T10:43:55Z</time>
      </trkpt>
      <trkpt lat="45.45805" lon="5.25681">
        <ele>590.39</ele>
        <time>2024-05-18T10:44:08Z</time>
      </trkpt>
      <trkpt lat="45.45808" lon="5.25685">
        <ele>592.31</ele>
        <time>2024-05-18T10:44:11Z</time>
      </trkpt>
      <trkpt lat="45.45833" lon="5.257">
        <ele>597.12</ele>
        <time>2024-05-18T10:44:30Z</time>
      </trkpt>
      <trkpt lat="45.45847" lon="5.25707">
        <ele>597.12</ele>
        <time>2024-05-18T10:44:40Z</time>
      </trkpt>
      <trkpt lat="45.4587" lon="5.25738">
        <ele>600</ele>
        <time>2024-05-18T10:45:00Z</time>
      </trkpt>
      <trkpt lat="45.45892" lon="5.25768">
        <ele>602.88</ele>
        <time>2024-05-18T10:45:21Z</time>
      </trkpt>
      <trkpt lat="45.45917" lon="5.25779">
        <ele>601.92</ele>
        <time>2024-05-18T10:45:39Z</time>
      </trkpt>
      <trkpt lat="45.45943" lon="5.25782">
        <ele>598.56</ele>
        <time>2024-05-18T10:45:57Z</time>
      </trkpt>
      <trkpt lat="45.45969" lon="5.25787">
        <ele>592.79</ele>
        <time>2024-05-18T10:46:14Z</time>
      </trkpt>
      <trkpt lat="45.45994" lon="5.25784">
        <ele>582.7</ele>
        <time>2024-05-18T10:46:31Z</time>
      </trkpt>
      <trkpt lat="45.46017" lon="5.25775">
        <ele>578.37</ele>
        <time>2024-05-18T10:46:45Z</time>
      </trkpt>
      <trkpt lat="45.46047" lon="5.25756">
        <ele>577.89</ele>
        <time>2024-05-18T10:47:05Z</time>
      </trkpt>
      <trkpt lat="45.46052" lon="5.25753">
        <ele>577.41</ele>
        <time>2024-05-18T10:47:09Z</time>
      </trkpt>
      <trkpt lat="45.4606" lon="5.25754">
        <ele>576.93</ele>
        <time>2024-05-18T10:47:15Z</time>
      </trkpt>
      <trkpt lat="45.46065" lon="5.25749">
        <ele>576.45</ele>
        <time>2024-05-18T10:47:19Z</time>
      </trkpt>
      <trkpt lat="45.46063" lon="5.2572">
        <ele>579.33</ele>
        <time>2024-05-18T10:47:35Z</time>
      </trkpt>
      <trkpt lat="45.46065" lon="5.25689">
        <ele>581.73</ele>
        <time>2024-05-18T10:47:50Z</time>
      </trkpt>
      <trkpt lat="45.46054" lon="5.25662">
        <ele>582.7</ele>
        <time>2024-05-18T10:48:06Z</time>
      </trkpt>
      <trkpt lat="45.46052" lon="5.25632">
        <ele>584.14</ele>
        <time>2024-05-18T10:48:20Z</time>
      </trkpt>
      <trkpt lat="45.46049" lon="5.25589">
        <ele>585.1</ele>
        <time>2024-05-18T10:48:33Z</time>
      </trkpt>
      <trkpt lat="45.46052" lon="5.25564">
        <ele>587.5</ele>
        <time>2024-05-18T10:48:45Z</time>
      </trkpt>
      <trkpt lat="45.4605" lon="5.25533">
        <ele>588.46</ele>
        <time>2024-05-18T10:49:01Z</time>
      </trkpt>
      <trkpt lat="45.46041" lon="5.25511">
        <ele>592.79</ele>
        <time>2024-05-18T10:49:13Z</time>
      </trkpt>
      <trkpt lat="45.4603" lon="5.25482">
        <ele>595.67</ele>
        <time>2024-05-18T10:49:30Z</time>
      </trkpt>
      <trkpt lat="45.46022" lon="5.25446">
        <ele>596.64</ele>
        <time>2024-05-18T10:49:46Z</time>
      </trkpt>
      <trkpt lat="45.46014" lon="5.2541">
        <ele>600.48</ele>
        <time>2024-05-18T10:50:03Z</time>
      </trkpt>
      <trkpt lat="45.45999" lon="5.25378">
        <ele>602.4</ele>
        <time>2024-05-18T10:50:20Z</time>
      </trkpt>
      <trkpt lat="45.45988" lon="5.25348">
        <ele>603.85</ele>
        <time>2024-05-18T10:50:34Z</time>
      </trkpt>
      <trkpt lat="45.45975" lon="5.25322">
        <ele>602.4</ele>
        <time>2024-05-18T10:50:50Z</time>
      </trkpt>
      <trkpt lat="45.45962" lon="5.25298">
        <ele>602.4</ele>
        <time>2024-05-18T10:51:04Z</time>
      </trkpt>
      <trkpt lat="45.45961" lon="5.25294">
        <ele>602.4</ele>
        <time>2024-05-18T10:51:06Z</time>
      </trkpt>
      <trkpt lat="45.45952" lon="5.25262">
        <ele>598.56</ele>
        <time>2024-05-18T10:51:22Z</time>
      </trkpt>
      <trkpt lat="45.45943" lon="5.25234">
        <ele>592.31</ele>
        <time>2024-05-18T10:51:39Z</time>
      </trkpt>
      <trkpt lat="45.45945" lon="5.25229">
        <ele>586.54</ele>
        <time>2024-05-18T10:52:07Z</time>
      </trkpt>
      <trkpt lat="45.45952" lon="5.25247">
        <ele>588.46</ele>
        <time>2024-05-18T10:52:25Z</time>
      </trkpt>
      <trkpt lat="45.45955" lon="5.25253">
        <ele>587.98</ele>
        <time>2024-05-18T10:52:29Z</time>
      </trkpt>
      <trkpt lat="45.45952" lon="5.25273">
        <ele>588.95</ele>
        <time>2024-05-18T10:52:45Z</time>
      </trkpt>
      <trkpt lat="45.45936" lon="5.25271">
        <ele>589.91</ele>
        <time>2024-05-18T10:53:04Z</time>
      </trkpt>
      <trkpt lat="45.45922" lon="5.25268">
        <ele>589.43</ele>
        <time>2024-05-18T10:53:27Z</time>
      </trkpt>
      <trkpt lat="45.45908" lon="5.25274">
        <ele>583.18</ele>
        <time>2024-05-18T10:53:43Z</time>
      </trkpt>
      <trkpt lat="45.45908" lon="5.25278">
        <ele>582.22</ele>
        <time>2024-05-18T10:53:45Z</time>
      </trkpt>
      <trkpt lat="45.45906" lon="5.25284">
        <ele>581.25</ele>
        <time>2024-05-18T10:53:48Z</time>
      </trkpt>
      <trkpt lat="45.45893" lon="5.25316">
        <ele>577.89</ele>
        <time>2024-05-18T10:54:05Z</time>
      </trkpt>
      <trkpt lat="45.45889" lon="5.25341">
        <ele>575.49</ele>
        <time>2024-05-18T10:54:17Z</time>
      </trkpt>
      <trkpt lat="45.45888" lon="5.25346">
        <ele>575.49</ele>
        <time>2024-05-18T10:54:19Z</time>
      </trkpt>
      <trkpt lat="45.45888" lon="5.25351">
        <ele>575.97</ele>
        <time>2024-05-18T10:54:21Z</time>
      </trkpt>
      <trkpt lat="45.45888" lon="5.25379">
        <ele>579.81</ele>
        <time>2024-05-18T10:54:34Z</time>
      </trkpt>
      <trkpt lat="45.45883" lon="5.25397">
        <ele>583.18</ele>
        <time>2024-05-18T10:54:47Z</time>
      </trkpt>
      <trkpt lat="45.45881" lon="5.25397">
        <ele>585.1</ele>
        <time>2024-05-18T10:55:12Z</time>
      </trkpt>
      <trkpt lat="45.45881" lon="5.25399">
        <ele>586.54</ele>
        <time>2024-05-18T10:55:30Z</time>
      </trkpt>
      <trkpt lat="45.45882" lon="5.25404">
        <ele>588.46</ele>
        <time>2024-05-18T10:55:48Z</time>
      </trkpt>
      <trkpt lat="45.45882" lon="5.25406">
        <ele>591.83</ele>
        <time>2024-05-18T10:55:59Z</time>
      </trkpt>
      <trkpt lat="45.45881" lon="5.25401">
        <ele>592.31</ele>
        <time>2024-05-18T10:56:12Z</time>
      </trkpt>
      <trkpt lat="45.45882" lon="5.25401">
        <ele>593.27</ele>
        <time>2024-05-18T10:56:32Z</time>
      </trkpt>
      <trkpt lat="45.4588" lon="5.25407">
        <ele>594.23</ele>
        <time>2024-05-18T10:56:45Z</time>
      </trkpt>
      <trkpt lat="45.45883" lon="5.25417">
        <ele>595.67</ele>
        <time>2024-05-18T10:56:57Z</time>
      </trkpt>
      <trkpt lat="45.45884" lon="5.25419">
        <ele>596.15</ele>
        <time>2024-05-18T10:57:18Z</time>
      </trkpt>
      <trkpt lat="45.45886" lon="5.25416">
        <ele>596.64</ele>
        <time>2024-05-18T10:57:37Z</time>
      </trkpt>
      <trkpt lat="45.4588" lon="5.25407">
        <ele>597.12</ele>
        <time>2024-05-18T10:58:02Z</time>
      </trkpt>
      <trkpt lat="45.45882" lon="5.25414">
        <ele>596.15</ele>
        <time>2024-05-18T10:58:18Z</time>
      </trkpt>
      <trkpt lat="45.45881" lon="5.25414">
        <ele>592.79</ele>
        <time>2024-05-18T10:58:38Z</time>
      </trkpt>
      <trkpt lat="45.45881" lon="5.25417">
        <ele>598.56</ele>
        <time>2024-05-18T10:58:53Z</time>
      </trkpt>
      <trkpt lat="45.45883" lon="5.2541">
        <ele>599.52</ele>
        <time>2024-05-18T10:59:13Z</time>
      </trkpt>
      <trkpt lat="45.45883" lon="5.25415">
        <ele>599.52</ele>
        <time>2024-05-18T10:59:28Z</time>
      </trkpt>
      <trkpt lat="45.4588" lon="5.25419">
        <ele>603.85</ele>
        <time>2024-05-18T10:59:48Z</time>
      </trkpt>
      <trkpt lat="45.45879" lon="5.25417">
        <ele>606.25</ele>
        <time>2024-05-18T11:00:03Z</time>
      </trkpt>
      <trkpt lat="45.45883" lon="5.25398">
        <ele>603.85</ele>
        <time>2024-05-18T11:00:22Z</time>
      </trkpt>
      <trkpt lat="45.45886" lon="5.25402">
        <ele>600.48</ele>
        <time>2024-05-18T11:00:38Z</time>
      </trkpt>
      <trkpt lat="45.45884" lon="5.25406">
        <ele>594.71</ele>
        <time>2024-05-18T11:01:02Z</time>
      </trkpt>
      <trkpt lat="45.45884" lon="5.25403">
        <ele>593.27</ele>
        <time>2024-05-18T11:01:19Z</time>
      </trkpt>
      <trkpt lat="45.45881" lon="5.25397">
        <ele>595.67</ele>
        <time>2024-05-18T11:01:42Z</time>
      </trkpt>
      <trkpt lat="45.45882" lon="5.25403">
        <ele>593.75</ele>
        <time>2024-05-18T11:02:03Z</time>
      </trkpt>
      <trkpt lat="45.45892" lon="5.25409">
        <ele>589.43</ele>
        <time>2024-05-18T11:02:15Z</time>
      </trkpt>
      <trkpt lat="45.45892" lon="5.2541">
        <ele>587.5</ele>
        <time>2024-05-18T11:02:34Z</time>
      </trkpt>
      <trkpt lat="45.45892" lon="5.25417">
        <ele>589.43</ele>
        <time>2024-05-18T11:02:49Z</time>
      </trkpt>
      <trkpt lat="45.45898" lon="5.25413">
        <ele>593.27</ele>
        <time>2024-05-18T11:03:10Z</time>
      </trkpt>
      <trkpt lat="45.45889" lon="5.25408">
        <ele>593.75</ele>
        <time>2024-05-18T11:03:39Z</time>
      </trkpt>
      <trkpt lat="45.45889" lon="5.25408">
        <ele>596.64</ele>
        <time>2024-05-18T11:04:04Z</time>
      </trkpt>
      <trkpt lat="45.45892" lon="5.2541">
        <ele>596.64</ele>
        <time>2024-05-18T11:04:27Z</time>
      </trkpt>
      <trkpt lat="45.45892" lon="5.25406">
        <ele>596.15</ele>
        <time>2024-05-18T11:04:40Z</time>
      </trkpt>
      <trkpt lat="45.45891" lon="5.254">
        <ele>591.83</ele>
        <time>2024-05-18T11:04:57Z</time>
      </trkpt>
      <trkpt lat="45.45862" lon="5.25425">
        <ele>579.81</ele>
        <time>2024-05-18T12:31:12Z</time>
      </trkpt>
      <trkpt lat="45.45874" lon="5.25395">
        <ele>580.77</ele>
        <time>2024-05-18T12:31:32Z</time>
      </trkpt>
      <trkpt lat="45.45873" lon="5.25394">
        <ele>581.73</ele>
        <time>2024-05-18T12:31:46Z</time>
      </trkpt>
      <trkpt lat="45.45873" lon="5.25386">
        <ele>581.73</ele>
        <time>2024-05-18T12:32:05Z</time>
      </trkpt>
      <trkpt lat="45.45883" lon="5.25368">
        <ele>582.22</ele>
        <time>2024-05-18T12:32:26Z</time>
      </trkpt>
      <trkpt lat="45.45879" lon="5.25365">
        <ele>582.7</ele>
        <time>2024-05-18T12:32:42Z</time>
      </trkpt>
      <trkpt lat="45.45878" lon="5.25365">
        <ele>582.7</ele>
        <time>2024-05-18T12:32:44Z</time>
      </trkpt>
      <trkpt lat="45.45877" lon="5.25366">
        <ele>582.7</ele>
        <time>2024-05-18T12:32:48Z</time>
      </trkpt>
      <trkpt lat="45.45869" lon="5.25382">
        <ele>582.7</ele>
        <time>2024-05-18T12:33:05Z</time>
      </trkpt>
      <trkpt lat="45.45863" lon="5.25383">
        <ele>583.18</ele>
        <time>2024-05-18T12:33:22Z</time>
      </trkpt>
      <trkpt lat="45.45873" lon="5.25395">
        <ele>583.18</ele>
        <time>2024-05-18T12:33:46Z</time>
      </trkpt>
      <trkpt lat="45.45902" lon="5.25393">
        <ele>583.18</ele>
        <time>2024-05-18T12:34:09Z</time>
      </trkpt>
      <trkpt lat="45.45924" lon="5.25305">
        <ele>577.41</ele>
        <time>2024-05-18T12:34:32Z</time>
      </trkpt>
      <trkpt lat="45.45949" lon="5.25274">
        <ele>597.6</ele>
        <time>2024-05-18T12:34:54Z</time>
      </trkpt>
      <trkpt lat="45.4595" lon="5.25258">
        <ele>600.96</ele>
        <time>2024-05-18T12:35:15Z</time>
      </trkpt>
      <trkpt lat="45.45945" lon="5.25238">
        <ele>602.4</ele>
        <time>2024-05-18T12:35:29Z</time>
      </trkpt>
      <trkpt lat="45.45936" lon="5.25213">
        <ele>601.44</ele>
        <time>2024-05-18T12:35:43Z</time>
      </trkpt>
      <trkpt lat="45.45933" lon="5.25175">
        <ele>594.23</ele>
        <time>2024-05-18T12:36:02Z</time>
      </trkpt>
      <trkpt lat="45.4593" lon="5.25163">
        <ele>591.35</ele>
        <time>2024-05-18T12:36:09Z</time>
      </trkpt>
      <trkpt lat="45.45928" lon="5.25157">
        <ele>589.91</ele>
        <time>2024-05-18T12:36:12Z</time>
      </trkpt>
      <trkpt lat="45.45921" lon="5.2513">
        <ele>588.46</ele>
        <time>2024-05-18T12:36:26Z</time>
      </trkpt>
      <trkpt lat="45.45913" lon="5.25103">
        <ele>587.02</ele>
        <time>2024-05-18T12:36:42Z</time>
      </trkpt>
      <trkpt lat="45.45906" lon="5.25079">
        <ele>583.66</ele>
        <time>2024-05-18T12:36:58Z</time>
      </trkpt>
      <trkpt lat="45.45906" lon="5.25074">
        <ele>583.66</ele>
        <time>2024-05-18T12:37:01Z</time>
      </trkpt>
      <trkpt lat="45.45924" lon="5.25048">
        <ele>584.14</ele>
        <time>2024-05-18T12:37:19Z</time>
      </trkpt>
      <trkpt lat="45.45941" lon="5.25028">
        <ele>583.66</ele>
        <time>2024-05-18T12:37:35Z</time>
      </trkpt>
      <trkpt lat="45.45951" lon="5.25022">
        <ele>585.1</ele>
        <time>2024-05-18T12:37:43Z</time>
      </trkpt>
      <trkpt lat="45.4597" lon="5.2501">
        <ele>584.14</ele>
        <time>2024-05-18T12:37:59Z</time>
      </trkpt>
      <trkpt lat="45.45986" lon="5.25007">
        <ele>581.25</ele>
        <time>2024-05-18T12:38:13Z</time>
      </trkpt>
      <trkpt lat="45.46011" lon="5.25">
        <ele>586.06</ele>
        <time>2024-05-18T12:38:27Z</time>
      </trkpt>
      <trkpt lat="45.46038" lon="5.24987">
        <ele>583.66</ele>
        <time>2024-05-18T12:38:44Z</time>
      </trkpt>
      <trkpt lat="45.46048" lon="5.2499">
        <ele>584.14</ele>
        <time>2024-05-18T12:38:57Z</time>
      </trkpt>
      <trkpt lat="45.46065" lon="5.24973">
        <ele>586.06</ele>
        <time>2024-05-18T12:39:11Z</time>
      </trkpt>
      <trkpt lat="45.46082" lon="5.24956">
        <ele>587.5</ele>
        <time>2024-05-18T12:39:26Z</time>
      </trkpt>
      <trkpt lat="45.46083" lon="5.24949">
        <ele>587.02</ele>
        <time>2024-05-18T12:39:29Z</time>
      </trkpt>
      <trkpt lat="45.46088" lon="5.24935">
        <ele>588.46</ele>
        <time>2024-05-18T12:39:36Z</time>
      </trkpt>
      <trkpt lat="45.46108" lon="5.24926">
        <ele>591.35</ele>
        <time>2024-05-18T12:39:52Z</time>
      </trkpt>
      <trkpt lat="45.46116" lon="5.24916">
        <ele>593.27</ele>
        <time>2024-05-18T12:40:11Z</time>
      </trkpt>
      <trkpt lat="45.46122" lon="5.24911">
        <ele>594.23</ele>
        <time>2024-05-18T12:40:32Z</time>
      </trkpt>
      <trkpt lat="45.46119" lon="5.24923">
        <ele>599.04</ele>
        <time>2024-05-18T12:40:49Z</time>
      </trkpt>
      <trkpt lat="45.46127" lon="5.24916">
        <ele>600.96</ele>
        <time>2024-05-18T12:41:13Z</time>
      </trkpt>
      <trkpt lat="45.46126" lon="5.2491">
        <ele>601.92</ele>
        <time>2024-05-18T12:41:36Z</time>
      </trkpt>
      <trkpt lat="45.46137" lon="5.249">
        <ele>605.29</ele>
        <time>2024-05-18T12:41:52Z</time>
      </trkpt>
      <trkpt lat="45.46134" lon="5.24906">
        <ele>602.88</ele>
        <time>2024-05-18T12:42:15Z</time>
      </trkpt>
      <trkpt lat="45.46141" lon="5.24898">
        <ele>601.92</ele>
        <time>2024-05-18T12:42:31Z</time>
      </trkpt>
      <trkpt lat="45.46161" lon="5.24893">
        <ele>600</ele>
        <time>2024-05-18T12:42:46Z</time>
      </trkpt>
      <trkpt lat="45.46169" lon="5.24893">
        <ele>600.48</ele>
        <time>2024-05-18T12:42:52Z</time>
      </trkpt>
      <trkpt lat="45.46188" lon="5.24903">
        <ele>600.96</ele>
        <time>2024-05-18T12:43:05Z</time>
      </trkpt>
      <trkpt lat="45.46208" lon="5.24905">
        <ele>597.6</ele>
        <time>2024-05-18T12:43:21Z</time>
      </trkpt>
      <trkpt lat="45.46225" lon="5.249">
        <ele>592.31</ele>
        <time>2024-05-18T12:43:36Z</time>
      </trkpt>
      <trkpt lat="45.4624" lon="5.24883">
        <ele>587.5</ele>
        <time>2024-05-18T12:43:50Z</time>
      </trkpt>
      <trkpt lat="45.46252" lon="5.24875">
        <ele>588.95</ele>
        <time>2024-05-18T12:44:01Z</time>
      </trkpt>
      <trkpt lat="45.46256" lon="5.24854">
        <ele>590.87</ele>
        <time>2024-05-18T12:44:12Z</time>
      </trkpt>
      <trkpt lat="45.46257" lon="5.24845">
        <ele>593.27</ele>
        <time>2024-05-18T12:44:22Z</time>
      </trkpt>
      <trkpt lat="45.46269" lon="5.24828">
        <ele>593.27</ele>
        <time>2024-05-18T12:44:37Z</time>
      </trkpt>
      <trkpt lat="45.4627" lon="5.24823">
        <ele>593.75</ele>
        <time>2024-05-18T12:44:40Z</time>
      </trkpt>
      <trkpt lat="45.46271" lon="5.24809">
        <ele>594.71</ele>
        <time>2024-05-18T12:44:47Z</time>
      </trkpt>
      <trkpt lat="45.46272" lon="5.24779">
        <ele>596.64</ele>
        <time>2024-05-18T12:45:02Z</time>
      </trkpt>
      <trkpt lat="45.46272" lon="5.24772">
        <ele>596.15</ele>
        <time>2024-05-18T12:45:05Z</time>
      </trkpt>
      <trkpt lat="45.46275" lon="5.24743">
        <ele>595.67</ele>
        <time>2024-05-18T12:45:18Z</time>
      </trkpt>
      <trkpt lat="45.46284" lon="5.2472">
        <ele>596.15</ele>
        <time>2024-05-18T12:45:29Z</time>
      </trkpt>
      <trkpt lat="45.46282" lon="5.24706">
        <ele>597.12</ele>
        <time>2024-05-18T12:45:34Z</time>
      </trkpt>
      <trkpt lat="45.46284" lon="5.24682">
        <ele>597.6</ele>
        <time>2024-05-18T12:45:46Z</time>
      </trkpt>
      <trkpt lat="45.4629" lon="5.2466">
        <ele>599.04</ele>
        <time>2024-05-18T12:45:59Z</time>
      </trkpt>
      <trkpt lat="45.46293" lon="5.24653">
        <ele>599.04</ele>
        <time>2024-05-18T12:46:03Z</time>
      </trkpt>
      <trkpt lat="45.46307" lon="5.24628">
        <ele>599.04</ele>
        <time>2024-05-18T12:46:18Z</time>
      </trkpt>
      <trkpt lat="45.46317" lon="5.2461">
        <ele>599.04</ele>
        <time>2024-05-18T12:46:29Z</time>
      </trkpt>
      <trkpt lat="45.46325" lon="5.24573">
        <ele>597.12</ele>
        <time>2024-05-18T12:46:46Z</time>
      </trkpt>
      <trkpt lat="45.46326" lon="5.24543">
        <ele>592.79</ele>
        <time>2024-05-18T12:47:02Z</time>
      </trkpt>
      <trkpt lat="45.46323" lon="5.24539">
        <ele>592.79</ele>
        <time>2024-05-18T12:47:05Z</time>
      </trkpt>
      <trkpt lat="45.46307" lon="5.24518">
        <ele>592.31</ele>
        <time>2024-05-18T12:47:20Z</time>
      </trkpt>
      <trkpt lat="45.46309" lon="5.24503">
        <ele>589.43</ele>
        <time>2024-05-18T12:47:32Z</time>
      </trkpt>
      <trkpt lat="45.46316" lon="5.24506">
        <ele>589.43</ele>
        <time>2024-05-18T12:47:37Z</time>
      </trkpt>
      <trkpt lat="45.46323" lon="5.24507">
        <ele>588.95</ele>
        <time>2024-05-18T12:47:41Z</time>
      </trkpt>
      <trkpt lat="45.46348" lon="5.24503">
        <ele>589.43</ele>
        <time>2024-05-18T12:47:57Z</time>
      </trkpt>
      <trkpt lat="45.46372" lon="5.245">
        <ele>591.35</ele>
        <time>2024-05-18T12:48:13Z</time>
      </trkpt>
      <trkpt lat="45.464" lon="5.245">
        <ele>590.39</ele>
        <time>2024-05-18T12:48:30Z</time>
      </trkpt>
      <trkpt lat="45.46425" lon="5.24493">
        <ele>586.54</ele>
        <time>2024-05-18T12:48:46Z</time>
      </trkpt>
      <trkpt lat="45.46451" lon="5.24489">
        <ele>583.18</ele>
        <time>2024-05-18T12:49:02Z</time>
      </trkpt>
      <trkpt lat="45.46466" lon="5.24494">
        <ele>578.37</ele>
        <time>2024-05-18T12:49:18Z</time>
      </trkpt>
      <trkpt lat="45.46487" lon="5.24504">
        <ele>572.12</ele>
        <time>2024-05-18T12:49:37Z</time>
      </trkpt>
      <trkpt lat="45.46514" lon="5.24521">
        <ele>564.91</ele>
        <time>2024-05-18T12:49:57Z</time>
      </trkpt>
      <trkpt lat="45.46532" lon="5.24536">
        <ele>559.14</ele>
        <time>2024-05-18T12:50:16Z</time>
      </trkpt>
      <trkpt lat="45.46533" lon="5.24539">
        <ele>557.7</ele>
        <time>2024-05-18T12:50:19Z</time>
      </trkpt>
      <trkpt lat="45.46559" lon="5.24562">
        <ele>556.74</ele>
        <time>2024-05-18T12:50:37Z</time>
      </trkpt>
      <trkpt lat="45.46587" lon="5.24575">
        <ele>558.66</ele>
        <time>2024-05-18T12:50:54Z</time>
      </trkpt>
      <trkpt lat="45.46613" lon="5.24589">
        <ele>561.07</ele>
        <time>2024-05-18T12:51:13Z</time>
      </trkpt>
      <trkpt lat="45.46645" lon="5.24599">
        <ele>562.99</ele>
        <time>2024-05-18T12:51:32Z</time>
      </trkpt>
      <trkpt lat="45.46669" lon="5.24603">
        <ele>559.14</ele>
        <time>2024-05-18T12:51:51Z</time>
      </trkpt>
      <trkpt lat="45.46701" lon="5.24599">
        <ele>559.14</ele>
        <time>2024-05-18T12:52:09Z</time>
      </trkpt>
      <trkpt lat="45.46729" lon="5.246">
        <ele>562.99</ele>
        <time>2024-05-18T12:52:29Z</time>
      </trkpt>
      <trkpt lat="45.46758" lon="5.24595">
        <ele>562.51</ele>
        <time>2024-05-18T12:52:49Z</time>
      </trkpt>
      <trkpt lat="45.46788" lon="5.24592">
        <ele>558.18</ele>
        <time>2024-05-18T12:53:07Z</time>
      </trkpt>
      <trkpt lat="45.46816" lon="5.24587">
        <ele>556.74</ele>
        <time>2024-05-18T12:53:24Z</time>
      </trkpt>
      <trkpt lat="45.46843" lon="5.24581">
        <ele>557.7</ele>
        <time>2024-05-18T12:53:42Z</time>
      </trkpt>
      <trkpt lat="45.46867" lon="5.24581">
        <ele>552.9</ele>
        <time>2024-05-18T12:54:01Z</time>
      </trkpt>
      <trkpt lat="45.46891" lon="5.24594">
        <ele>550.49</ele>
        <time>2024-05-18T12:54:19Z</time>
      </trkpt>
      <trkpt lat="45.46917" lon="5.24596">
        <ele>549.05</ele>
        <time>2024-05-18T12:54:39Z</time>
      </trkpt>
      <trkpt lat="45.46943" lon="5.24591">
        <ele>547.61</ele>
        <time>2024-05-18T12:54:57Z</time>
      </trkpt>
      <trkpt lat="45.46969" lon="5.2458">
        <ele>543.28</ele>
        <time>2024-05-18T12:55:18Z</time>
      </trkpt>
      <trkpt lat="45.46998" lon="5.24568">
        <ele>539.92</ele>
        <time>2024-05-18T12:55:39Z</time>
      </trkpt>
      <trkpt lat="45.47025" lon="5.24557">
        <ele>537.99</ele>
        <time>2024-05-18T12:55:58Z</time>
      </trkpt>
      <trkpt lat="45.47038" lon="5.24549">
        <ele>534.15</ele>
        <time>2024-05-18T12:56:09Z</time>
      </trkpt>
      <trkpt lat="45.47061" lon="5.24534">
        <ele>530.3</ele>
        <time>2024-05-18T12:56:27Z</time>
      </trkpt>
      <trkpt lat="45.47091" lon="5.24522">
        <ele>529.34</ele>
        <time>2024-05-18T12:56:45Z</time>
      </trkpt>
      <trkpt lat="45.47096" lon="5.24519">
        <ele>528.86</ele>
        <time>2024-05-18T12:56:48Z</time>
      </trkpt>
      <trkpt lat="45.47133" lon="5.24508">
        <ele>527.42</ele>
        <time>2024-05-18T12:57:04Z</time>
      </trkpt>
      <trkpt lat="45.47142" lon="5.24507">
        <ele>528.38</ele>
        <time>2024-05-18T12:57:11Z</time>
      </trkpt>
      <trkpt lat="45.47143" lon="5.24506">
        <ele>528.38</ele>
        <time>2024-05-18T12:57:12Z</time>
      </trkpt>
      <trkpt lat="45.4717" lon="5.24495">
        <ele>526.94</ele>
        <time>2024-05-18T12:57:30Z</time>
      </trkpt>
      <trkpt lat="45.47189" lon="5.24491">
        <ele>527.42</ele>
        <time>2024-05-18T12:57:43Z</time>
      </trkpt>
      <trkpt lat="45.47212" lon="5.24488">
        <ele>526.46</ele>
        <time>2024-05-18T12:57:59Z</time>
      </trkpt>
      <trkpt lat="45.47239" lon="5.24488">
        <ele>525.5</ele>
        <time>2024-05-18T12:58:17Z</time>
      </trkpt>
      <trkpt lat="45.47266" lon="5.24496">
        <ele>526.94</ele>
        <time>2024-05-18T12:58:34Z</time>
      </trkpt>
      <trkpt lat="45.47291" lon="5.24499">
        <ele>525.5</ele>
        <time>2024-05-18T12:58:50Z</time>
      </trkpt>
      <trkpt lat="45.47318" lon="5.24491">
        <ele>519.25</ele>
        <time>2024-05-18T12:59:11Z</time>
      </trkpt>
      <trkpt lat="45.47349" lon="5.24481">
        <ele>518.77</ele>
        <time>2024-05-18T12:59:30Z</time>
      </trkpt>
      <trkpt lat="45.47379" lon="5.24478">
        <ele>521.65</ele>
        <time>2024-05-18T12:59:48Z</time>
      </trkpt>
      <trkpt lat="45.47394" lon="5.24466">
        <ele>521.65</ele>
        <time>2024-05-18T13:00:02Z</time>
      </trkpt>
      <trkpt lat="45.47394" lon="5.24464">
        <ele>521.65</ele>
        <time>2024-05-18T13:00:03Z</time>
      </trkpt>
      <trkpt lat="45.47393" lon="5.24462">
        <ele>521.65</ele>
        <time>2024-05-18T13:00:04Z</time>
      </trkpt>
      <trkpt lat="45.47392" lon="5.24461">
        <ele>521.65</ele>
        <time>2024-05-18T13:00:05Z</time>
      </trkpt>
      <trkpt lat="45.47391" lon="5.24459">
        <ele>521.17</ele>
        <time>2024-05-18T13:00:06Z</time>
      </trkpt>
      <trkpt lat="45.4739" lon="5.24458">
        <ele>521.17</ele>
        <time>2024-05-18T13:00:07Z</time>
      </trkpt>
      <trkpt lat="45.47385" lon="5.24454">
        <ele>520.69</ele>
        <time>2024-05-18T13:00:19Z</time>
      </trkpt>
      <trkpt lat="45.47385" lon="5.24453">
        <ele>520.69</ele>
        <time>2024-05-18T13:00:20Z</time>
      </trkpt>
      <trkpt lat="45.4737" lon="5.24415">
        <ele>520.69</ele>
        <time>2024-05-18T13:00:39Z</time>
      </trkpt>
      <trkpt lat="45.4736" lon="5.24379">
        <ele>519.73</ele>
        <time>2024-05-18T13:01:00Z</time>
      </trkpt>
      <trkpt lat="45.47349" lon="5.24344">
        <ele>519.25</ele>
        <time>2024-05-18T13:01:19Z</time>
      </trkpt>
      <trkpt lat="45.4734" lon="5.24314">
        <ele>518.77</ele>
        <time>2024-05-18T13:01:36Z</time>
      </trkpt>
      <trkpt lat="45.47326" lon="5.24274">
        <ele>520.21</ele>
        <time>2024-05-18T13:01:56Z</time>
      </trkpt>
      <trkpt lat="45.47329" lon="5.24252">
        <ele>522.13</ele>
        <time>2024-05-18T13:02:11Z</time>
      </trkpt>
      <trkpt lat="45.47347" lon="5.24212">
        <ele>526.94</ele>
        <time>2024-05-18T13:02:32Z</time>
      </trkpt>
      <trkpt lat="45.47345" lon="5.24185">
        <ele>533.67</ele>
        <time>2024-05-18T13:02:49Z</time>
      </trkpt>
      <trkpt lat="45.47325" lon="5.24156">
        <ele>536.55</ele>
        <time>2024-05-18T13:03:09Z</time>
      </trkpt>
      <trkpt lat="45.4732" lon="5.24152">
        <ele>537.51</ele>
        <time>2024-05-18T13:03:25Z</time>
      </trkpt>
      <trkpt lat="45.47327" lon="5.24159">
        <ele>538.96</ele>
        <time>2024-05-18T13:03:35Z</time>
      </trkpt>
      <trkpt lat="45.47341" lon="5.24175">
        <ele>538.96</ele>
        <time>2024-05-18T13:03:49Z</time>
      </trkpt>
      <trkpt lat="45.47346" lon="5.24173">
        <ele>538.48</ele>
        <time>2024-05-18T13:03:54Z</time>
      </trkpt>
      <trkpt lat="45.47347" lon="5.24171">
        <ele>538.48</ele>
        <time>2024-05-18T13:03:55Z</time>
      </trkpt>
      <trkpt lat="45.4735" lon="5.24168">
        <ele>538.48</ele>
        <time>2024-05-18T13:03:58Z</time>
      </trkpt>
      <trkpt lat="45.4736" lon="5.24142">
        <ele>536.07</ele>
        <time>2024-05-18T13:04:13Z</time>
      </trkpt>
      <trkpt lat="45.47365" lon="5.24123">
        <ele>532.71</ele>
        <time>2024-05-18T13:04:28Z</time>
      </trkpt>
      <trkpt lat="45.47373" lon="5.24102">
        <ele>525.98</ele>
        <time>2024-05-18T13:04:43Z</time>
      </trkpt>
      <trkpt lat="45.474" lon="5.24074">
        <ele>518.77</ele>
        <time>2024-05-18T13:05:04Z</time>
      </trkpt>
      <trkpt lat="45.47418" lon="5.24044">
        <ele>515.88</ele>
        <time>2024-05-18T13:05:25Z</time>
      </trkpt>
      <trkpt lat="45.47423" lon="5.24033">
        <ele>514.92</ele>
        <time>2024-05-18T13:05:31Z</time>
      </trkpt>
      <trkpt lat="45.47438" lon="5.24017">
        <ele>515.4</ele>
        <time>2024-05-18T13:05:42Z</time>
      </trkpt>
      <trkpt lat="45.47448" lon="5.24005">
        <ele>516.85</ele>
        <time>2024-05-18T13:05:49Z</time>
      </trkpt>
      <trkpt lat="45.47464" lon="5.23975">
        <ele>518.29</ele>
        <time>2024-05-18T13:06:05Z</time>
      </trkpt>
      <trkpt lat="45.47478" lon="5.2395">
        <ele>522.13</ele>
        <time>2024-05-18T13:06:18Z</time>
      </trkpt>
      <trkpt lat="45.47488" lon="5.23925">
        <ele>523.58</ele>
        <time>2024-05-18T13:06:32Z</time>
      </trkpt>
      <trkpt lat="45.4751" lon="5.23901">
        <ele>524.06</ele>
        <time>2024-05-18T13:06:48Z</time>
      </trkpt>
      <trkpt lat="45.47525" lon="5.23885">
        <ele>522.61</ele>
        <time>2024-05-18T13:07:01Z</time>
      </trkpt>
      <trkpt lat="45.47541" lon="5.23861">
        <ele>518.77</ele>
        <time>2024-05-18T13:07:15Z</time>
      </trkpt>
      <trkpt lat="45.47558" lon="5.23839">
        <ele>515.88</ele>
        <time>2024-05-18T13:07:28Z</time>
      </trkpt>
      <trkpt lat="45.47556" lon="5.23813">
        <ele>513</ele>
        <time>2024-05-18T13:07:43Z</time>
      </trkpt>
      <trkpt lat="45.47551" lon="5.23807">
        <ele>512.52</ele>
        <time>2024-05-18T13:07:48Z</time>
      </trkpt>
      <trkpt lat="45.47532" lon="5.23778">
        <ele>515.4</ele>
        <time>2024-05-18T13:08:05Z</time>
      </trkpt>
      <trkpt lat="45.47518" lon="5.23752">
        <ele>525.02</ele>
        <time>2024-05-18T13:08:21Z</time>
      </trkpt>
      <trkpt lat="45.47499" lon="5.23731">
        <ele>527.9</ele>
        <time>2024-05-18T13:08:39Z</time>
      </trkpt>
      <trkpt lat="45.47481" lon="5.23715">
        <ele>531.27</ele>
        <time>2024-05-18T13:08:52Z</time>
      </trkpt>
      <trkpt lat="45.47468" lon="5.237">
        <ele>534.63</ele>
        <time>2024-05-18T13:09:05Z</time>
      </trkpt>
      <trkpt lat="45.47447" lon="5.23687">
        <ele>542.8</ele>
        <time>2024-05-18T13:09:19Z</time>
      </trkpt>
      <trkpt lat="45.47424" lon="5.23675">
        <ele>547.13</ele>
        <time>2024-05-18T13:09:34Z</time>
      </trkpt>
      <trkpt lat="45.47405" lon="5.23661">
        <ele>550.97</ele>
        <time>2024-05-18T13:09:49Z</time>
      </trkpt>
      <trkpt lat="45.47382" lon="5.23652">
        <ele>553.38</ele>
        <time>2024-05-18T13:10:03Z</time>
      </trkpt>
      <trkpt lat="45.47361" lon="5.23641">
        <ele>555.78</ele>
        <time>2024-05-18T13:10:19Z</time>
      </trkpt>
      <trkpt lat="45.47343" lon="5.23628">
        <ele>555.78</ele>
        <time>2024-05-18T13:10:31Z</time>
      </trkpt>
      <trkpt lat="45.4732" lon="5.23618">
        <ele>553.86</ele>
        <time>2024-05-18T13:10:46Z</time>
      </trkpt>
      <trkpt lat="45.47297" lon="5.23611">
        <ele>552.41</ele>
        <time>2024-05-18T13:11:01Z</time>
      </trkpt>
      <trkpt lat="45.47267" lon="5.23599">
        <ele>552.41</ele>
        <time>2024-05-18T13:11:17Z</time>
      </trkpt>
      <trkpt lat="45.47266" lon="5.23598">
        <ele>552.9</ele>
        <time>2024-05-18T13:11:18Z</time>
      </trkpt>
      <trkpt lat="45.47241" lon="5.23574">
        <ele>554.34</ele>
        <time>2024-05-18T13:11:36Z</time>
      </trkpt>
      <trkpt lat="45.47225" lon="5.23547">
        <ele>554.34</ele>
        <time>2024-05-18T13:11:53Z</time>
      </trkpt>
      <trkpt lat="45.47216" lon="5.23511">
        <ele>551.45</ele>
        <time>2024-05-18T13:12:10Z</time>
      </trkpt>
      <trkpt lat="45.47196" lon="5.23474">
        <ele>551.93</ele>
        <time>2024-05-18T13:12:26Z</time>
      </trkpt>
      <trkpt lat="45.47184" lon="5.23439">
        <ele>552.41</ele>
        <time>2024-05-18T13:12:44Z</time>
      </trkpt>
      <trkpt lat="45.47164" lon="5.23396">
        <ele>556.74</ele>
        <time>2024-05-18T13:13:06Z</time>
      </trkpt>
      <trkpt lat="45.47152" lon="5.23367">
        <ele>561.07</ele>
        <time>2024-05-18T13:13:23Z</time>
      </trkpt>
      <trkpt lat="45.47143" lon="5.23346">
        <ele>563.47</ele>
        <time>2024-05-18T13:13:36Z</time>
      </trkpt>
      <trkpt lat="45.47128" lon="5.23313">
        <ele>566.35</ele>
        <time>2024-05-18T13:13:52Z</time>
      </trkpt>
      <trkpt lat="45.47111" lon="5.23278">
        <ele>565.87</ele>
        <time>2024-05-18T13:14:08Z</time>
      </trkpt>
      <trkpt lat="45.47106" lon="5.23265">
        <ele>564.43</ele>
        <time>2024-05-18T13:14:22Z</time>
      </trkpt>
      <trkpt lat="45.47131" lon="5.23274">
        <ele>560.59</ele>
        <time>2024-05-18T13:14:40Z</time>
      </trkpt>
      <trkpt lat="45.47156" lon="5.23257">
        <ele>559.62</ele>
        <time>2024-05-18T13:14:59Z</time>
      </trkpt>
      <trkpt lat="45.4718" lon="5.23236">
        <ele>559.62</ele>
        <time>2024-05-18T13:15:16Z</time>
      </trkpt>
      <trkpt lat="45.47198" lon="5.23218">
        <ele>558.18</ele>
        <time>2024-05-18T13:15:33Z</time>
      </trkpt>
      <trkpt lat="45.47223" lon="5.23205">
        <ele>555.78</ele>
        <time>2024-05-18T13:15:52Z</time>
      </trkpt>
      <trkpt lat="45.47236" lon="5.23205">
        <ele>555.78</ele>
        <time>2024-05-18T13:15:59Z</time>
      </trkpt>
      <trkpt lat="45.47258" lon="5.23198">
        <ele>556.26</ele>
        <time>2024-05-18T13:16:14Z</time>
      </trkpt>
      <trkpt lat="45.47285" lon="5.23193">
        <ele>557.22</ele>
        <time>2024-05-18T13:16:30Z</time>
      </trkpt>
      <trkpt lat="45.47309" lon="5.232">
        <ele>556.26</ele>
        <time>2024-05-18T13:16:46Z</time>
      </trkpt>
      <trkpt lat="45.47337" lon="5.23208">
        <ele>556.74</ele>
        <time>2024-05-18T13:17:03Z</time>
      </trkpt>
      <trkpt lat="45.4735" lon="5.23214">
        <ele>557.22</ele>
        <time>2024-05-18T13:17:13Z</time>
      </trkpt>
      <trkpt lat="45.47375" lon="5.23224">
        <ele>558.18</ele>
        <time>2024-05-18T13:17:28Z</time>
      </trkpt>
      <trkpt lat="45.47401" lon="5.2323">
        <ele>557.7</ele>
        <time>2024-05-18T13:17:48Z</time>
      </trkpt>
      <trkpt lat="45.47427" lon="5.23238">
        <ele>558.66</ele>
        <time>2024-05-18T13:18:04Z</time>
      </trkpt>
      <trkpt lat="45.47455" lon="5.2325">
        <ele>555.3</ele>
        <time>2024-05-18T13:18:21Z</time>
      </trkpt>
      <trkpt lat="45.47481" lon="5.23243">
        <ele>550.49</ele>
        <time>2024-05-18T13:18:38Z</time>
      </trkpt>
      <trkpt lat="45.47486" lon="5.23236">
        <ele>548.09</ele>
        <time>2024-05-18T13:18:44Z</time>
      </trkpt>
      <trkpt lat="45.47492" lon="5.2323">
        <ele>546.65</ele>
        <time>2024-05-18T13:18:48Z</time>
      </trkpt>
      <trkpt lat="45.47512" lon="5.23209">
        <ele>543.28</ele>
        <time>2024-05-18T13:19:05Z</time>
      </trkpt>
      <trkpt lat="45.4752" lon="5.23201">
        <ele>542.32</ele>
        <time>2024-05-18T13:19:12Z</time>
      </trkpt>
      <trkpt lat="45.4754" lon="5.23185">
        <ele>543.76</ele>
        <time>2024-05-18T13:19:28Z</time>
      </trkpt>
      <trkpt lat="45.47556" lon="5.23166">
        <ele>541.36</ele>
        <time>2024-05-18T13:19:46Z</time>
      </trkpt>
      <trkpt lat="45.47561" lon="5.23157">
        <ele>540.88</ele>
        <time>2024-05-18T13:20:08Z</time>
      </trkpt>
      <trkpt lat="45.47566" lon="5.23156">
        <ele>543.76</ele>
        <time>2024-05-18T13:20:23Z</time>
      </trkpt>
      <trkpt lat="45.47566" lon="5.23155">
        <ele>544.24</ele>
        <time>2024-05-18T13:20:39Z</time>
      </trkpt>
      <trkpt lat="45.47569" lon="5.23148">
        <ele>542.8</ele>
        <time>2024-05-18T13:20:56Z</time>
      </trkpt>
      <trkpt lat="45.47574" lon="5.23149">
        <ele>541.36</ele>
        <time>2024-05-18T13:21:11Z</time>
      </trkpt>
      <trkpt lat="45.47577" lon="5.23141">
        <ele>541.36</ele>
        <time>2024-05-18T13:21:22Z</time>
      </trkpt>
      <trkpt lat="45.47588" lon="5.23129">
        <ele>541.36</ele>
        <time>2024-05-18T13:21:37Z</time>
      </trkpt>
      <trkpt lat="45.47606" lon="5.23109">
        <ele>539.44</ele>
        <time>2024-05-18T13:21:54Z</time>
      </trkpt>
      <trkpt lat="45.47609" lon="5.23105">
        <ele>539.44</ele>
        <time>2024-05-18T13:21:58Z</time>
      </trkpt>
      <trkpt lat="45.47615" lon="5.23094">
        <ele>534.15</ele>
        <time>2024-05-18T13:22:12Z</time>
      </trkpt>
      <trkpt lat="45.47619" lon="5.2309">
        <ele>537.99</ele>
        <time>2024-05-18T13:22:33Z</time>
      </trkpt>
      <trkpt lat="45.47617" lon="5.23088">
        <ele>547.13</ele>
        <time>2024-05-18T13:22:58Z</time>
      </trkpt>
      <trkpt lat="45.47625" lon="5.2309">
        <ele>548.57</ele>
        <time>2024-05-18T13:23:18Z</time>
      </trkpt>
      <trkpt lat="45.47644" lon="5.23098">
        <ele>545.2</ele>
        <time>2024-05-18T13:23:34Z</time>
      </trkpt>
      <trkpt lat="45.47656" lon="5.23102">
        <ele>542.8</ele>
        <time>2024-05-18T13:23:50Z</time>
      </trkpt>
      <trkpt lat="45.47668" lon="5.231">
        <ele>541.36</ele>
        <time>2024-05-18T13:24:09Z</time>
      </trkpt>
      <trkpt lat="45.4769" lon="5.23095">
        <ele>537.99</ele>
        <time>2024-05-18T13:24:28Z</time>
      </trkpt>
      <trkpt lat="45.47716" lon="5.23082">
        <ele>536.55</ele>
        <time>2024-05-18T13:24:50Z</time>
      </trkpt>
      <trkpt lat="45.47748" lon="5.231">
        <ele>532.23</ele>
        <time>2024-05-18T13:25:10Z</time>
      </trkpt>
      <trkpt lat="45.47752" lon="5.23119">
        <ele>525.5</ele>
        <time>2024-05-18T13:25:23Z</time>
      </trkpt>
      <trkpt lat="45.47751" lon="5.23142">
        <ele>522.61</ele>
        <time>2024-05-18T13:25:34Z</time>
      </trkpt>
      <trkpt lat="45.47749" lon="5.23182">
        <ele>514.92</ele>
        <time>2024-05-18T13:25:53Z</time>
      </trkpt>
      <trkpt lat="45.47744" lon="5.23223">
        <ele>507.71</ele>
        <time>2024-05-18T13:26:12Z</time>
      </trkpt>
      <trkpt lat="45.47754" lon="5.23241">
        <ele>501.46</ele>
        <time>2024-05-18T13:26:23Z</time>
      </trkpt>
      <trkpt lat="45.47779" lon="5.23251">
        <ele>498.1</ele>
        <time>2024-05-18T13:26:38Z</time>
      </trkpt>
      <trkpt lat="45.47795" lon="5.23255">
        <ele>496.66</ele>
        <time>2024-05-18T13:26:50Z</time>
      </trkpt>
      <trkpt lat="45.478" lon="5.23239">
        <ele>492.81</ele>
        <time>2024-05-18T13:26:59Z</time>
      </trkpt>
      <trkpt lat="45.47801" lon="5.23232">
        <ele>491.85</ele>
        <time>2024-05-18T13:27:02Z</time>
      </trkpt>
      <trkpt lat="45.47803" lon="5.23229">
        <ele>491.85</ele>
        <time>2024-05-18T13:27:03Z</time>
      </trkpt>
      <trkpt lat="45.47804" lon="5.23226">
        <ele>491.37</ele>
        <time>2024-05-18T13:27:04Z</time>
      </trkpt>
      <trkpt lat="45.47805" lon="5.23224">
        <ele>491.37</ele>
        <time>2024-05-18T13:27:05Z</time>
      </trkpt>
      <trkpt lat="45.47806" lon="5.23221">
        <ele>491.37</ele>
        <time>2024-05-18T13:27:06Z</time>
      </trkpt>
      <trkpt lat="45.47807" lon="5.23219">
        <ele>491.37</ele>
        <time>2024-05-18T13:27:07Z</time>
      </trkpt>
      <trkpt lat="45.47808" lon="5.23217">
        <ele>491.37</ele>
        <time>2024-05-18T13:27:08Z</time>
      </trkpt>
      <trkpt lat="45.47808" lon="5.23214">
        <ele>491.37</ele>
        <time>2024-05-18T13:27:09Z</time>
      </trkpt>
      <trkpt lat="45.47809" lon="5.23212">
        <ele>491.37</ele>
        <time>2024-05-18T13:27:10Z</time>
      </trkpt>
      <trkpt lat="45.4781" lon="5.2321">
        <ele>491.37</ele>
        <time>2024-05-18T13:27:11Z</time>
      </trkpt>
      <trkpt lat="45.47811" lon="5.23208">
        <ele>491.37</ele>
        <time>2024-05-18T13:27:12Z</time>
      </trkpt>
      <trkpt lat="45.47811" lon="5.23206">
        <ele>490.89</ele>
        <time>2024-05-18T13:27:13Z</time>
      </trkpt>
      <trkpt lat="45.47812" lon="5.23203">
        <ele>490.41</ele>
        <time>2024-05-18T13:27:14Z</time>
      </trkpt>
      <trkpt lat="45.47815" lon="5.23186">
        <ele>488.49</ele>
        <time>2024-05-18T13:27:22Z</time>
      </trkpt>
      <trkpt lat="45.47816" lon="5.23184">
        <ele>488.49</ele>
        <time>2024-05-18T13:27:23Z</time>
      </trkpt>
      <trkpt lat="45.47816" lon="5.23182">
        <ele>488.01</ele>
        <time>2024-05-18T13:27:24Z</time>
      </trkpt>
      <trkpt lat="45.47817" lon="5.2318">
        <ele>487.53</ele>
        <time>2024-05-18T13:27:25Z</time>
      </trkpt>
      <trkpt lat="45.47818" lon="5.23178">
        <ele>487.53</ele>
        <time>2024-05-18T13:27:26Z</time>
      </trkpt>
      <trkpt lat="45.47819" lon="5.23176">
        <ele>487.05</ele>
        <time>2024-05-18T13:27:27Z</time>
      </trkpt>
      <trkpt lat="45.4782" lon="5.23174">
        <ele>487.53</ele>
        <time>2024-05-18T13:27:28Z</time>
      </trkpt>
      <trkpt lat="45.4782" lon="5.23172">
        <ele>487.53</ele>
        <time>2024-05-18T13:27:29Z</time>
      </trkpt>
      <trkpt lat="45.47822" lon="5.23164">
        <ele>487.05</ele>
        <time>2024-05-18T13:27:32Z</time>
      </trkpt>
      <trkpt lat="45.47823" lon="5.23162">
        <ele>487.05</ele>
        <time>2024-05-18T13:27:33Z</time>
      </trkpt>
      <trkpt lat="45.47829" lon="5.2315">
        <ele>488.97</ele>
        <time>2024-05-18T13:27:39Z</time>
      </trkpt>
      <trkpt lat="45.4783" lon="5.23148">
        <ele>489.45</ele>
        <time>2024-05-18T13:27:40Z</time>
      </trkpt>
      <trkpt lat="45.47831" lon="5.23145">
        <ele>489.93</ele>
        <time>2024-05-18T13:27:41Z</time>
      </trkpt>
      <trkpt lat="45.47831" lon="5.23143">
        <ele>489.93</ele>
        <time>2024-05-18T13:27:42Z</time>
      </trkpt>
      <trkpt lat="45.47832" lon="5.23141">
        <ele>490.41</ele>
        <time>2024-05-18T13:27:43Z</time>
      </trkpt>
      <trkpt lat="45.47833" lon="5.23139">
        <ele>490.89</ele>
        <time>2024-05-18T13:27:44Z</time>
      </trkpt>
      <trkpt lat="45.47833" lon="5.23137">
        <ele>490.89</ele>
        <time>2024-05-18T13:27:45Z</time>
      </trkpt>
      <trkpt lat="45.47834" lon="5.23135">
        <ele>491.37</ele>
        <time>2024-05-18T13:27:46Z</time>
      </trkpt>
      <trkpt lat="45.47835" lon="5.23133">
        <ele>491.37</ele>
        <time>2024-05-18T13:27:47Z</time>
      </trkpt>
      <trkpt lat="45.47838" lon="5.23113">
        <ele>492.33</ele>
        <time>2024-05-18T13:27:57Z</time>
      </trkpt>
      <trkpt lat="45.47839" lon="5.2311">
        <ele>492.33</ele>
        <time>2024-05-18T13:27:58Z</time>
      </trkpt>
      <trkpt lat="45.4784" lon="5.23107">
        <ele>492.33</ele>
        <time>2024-05-18T13:27:59Z</time>
      </trkpt>
      <trkpt lat="45.47845" lon="5.23078">
        <ele>494.26</ele>
        <time>2024-05-18T13:28:11Z</time>
      </trkpt>
      <trkpt lat="45.47845" lon="5.23075">
        <ele>494.26</ele>
        <time>2024-05-18T13:28:12Z</time>
      </trkpt>
      <trkpt lat="45.47845" lon="5.23072">
        <ele>494.74</ele>
        <time>2024-05-18T13:28:13Z</time>
      </trkpt>
      <trkpt lat="45.47846" lon="5.23058">
        <ele>495.22</ele>
        <time>2024-05-18T13:28:19Z</time>
      </trkpt>
      <trkpt lat="45.47847" lon="5.23054">
        <ele>495.22</ele>
        <time>2024-05-18T13:28:21Z</time>
      </trkpt>
      <trkpt lat="45.47854" lon="5.23031">
        <ele>492.81</ele>
        <time>2024-05-18T13:28:32Z</time>
      </trkpt>
      <trkpt lat="45.47855" lon="5.23029">
        <ele>492.81</ele>
        <time>2024-05-18T13:28:33Z</time>
      </trkpt>
      <trkpt lat="45.47856" lon="5.23027">
        <ele>492.81</ele>
        <time>2024-05-18T13:28:34Z</time>
      </trkpt>
      <trkpt lat="45.47857" lon="5.23025">
        <ele>492.81</ele>
        <time>2024-05-18T13:28:35Z</time>
      </trkpt>
      <trkpt lat="45.47859" lon="5.23023">
        <ele>492.81</ele>
        <time>2024-05-18T13:28:36Z</time>
      </trkpt>
      <trkpt lat="45.4786" lon="5.23021">
        <ele>492.81</ele>
        <time>2024-05-18T13:28:37Z</time>
      </trkpt>
      <trkpt lat="45.47861" lon="5.23019">
        <ele>493.29</ele>
        <time>2024-05-18T13:28:38Z</time>
      </trkpt>
      <trkpt lat="45.47862" lon="5.23017">
        <ele>493.77</ele>
        <time>2024-05-18T13:28:39Z</time>
      </trkpt>
      <trkpt lat="45.47863" lon="5.23014">
        <ele>493.77</ele>
        <time>2024-05-18T13:28:40Z</time>
      </trkpt>
      <trkpt lat="45.47864" lon="5.23012">
        <ele>493.77</ele>
        <time>2024-05-18T13:28:41Z</time>
      </trkpt>
      <trkpt lat="45.47872" lon="5.22991">
        <ele>491.85</ele>
        <time>2024-05-18T13:28:51Z</time>
      </trkpt>
      <trkpt lat="45.47873" lon="5.22989">
        <ele>491.37</ele>
        <time>2024-05-18T13:28:52Z</time>
      </trkpt>
      <trkpt lat="45.47876" lon="5.22974">
        <ele>490.89</ele>
        <time>2024-05-18T13:28:59Z</time>
      </trkpt>
      <trkpt lat="45.47876" lon="5.22972">
        <ele>490.89</ele>
        <time>2024-05-18T13:29:00Z</time>
      </trkpt>
      <trkpt lat="45.47876" lon="5.22969">
        <ele>490.89</ele>
        <time>2024-05-18T13:29:01Z</time>
      </trkpt>
      <trkpt lat="45.47877" lon="5.22967">
        <ele>490.89</ele>
        <time>2024-05-18T13:29:02Z</time>
      </trkpt>
      <trkpt lat="45.47879" lon="5.22965">
        <ele>490.89</ele>
        <time>2024-05-18T13:29:03Z</time>
      </trkpt>
      <trkpt lat="45.4788" lon="5.22963">
        <ele>490.89</ele>
        <time>2024-05-18T13:29:04Z</time>
      </trkpt>
      <trkpt lat="45.47881" lon="5.22961">
        <ele>490.89</ele>
        <time>2024-05-18T13:29:05Z</time>
      </trkpt>
      <trkpt lat="45.47881" lon="5.22959">
        <ele>490.41</ele>
        <time>2024-05-18T13:29:06Z</time>
      </trkpt>
      <trkpt lat="45.47882" lon="5.22957">
        <ele>490.89</ele>
        <time>2024-05-18T13:29:07Z</time>
      </trkpt>
      <trkpt lat="45.47883" lon="5.22954">
        <ele>490.89</ele>
        <time>2024-05-18T13:29:08Z</time>
      </trkpt>
      <trkpt lat="45.47895" lon="5.2291">
        <ele>491.85</ele>
        <time>2024-05-18T13:29:27Z</time>
      </trkpt>
      <trkpt lat="45.47908" lon="5.22871">
        <ele>493.29</ele>
        <time>2024-05-18T13:29:45Z</time>
      </trkpt>
      <trkpt lat="45.47922" lon="5.2283">
        <ele>494.74</ele>
        <time>2024-05-18T13:30:05Z</time>
      </trkpt>
      <trkpt lat="45.47935" lon="5.22792">
        <ele>495.22</ele>
        <time>2024-05-18T13:30:24Z</time>
      </trkpt>
      <trkpt lat="45.47953" lon="5.22756">
        <ele>496.18</ele>
        <time>2024-05-18T13:30:42Z</time>
      </trkpt>
      <trkpt lat="45.47964" lon="5.22718">
        <ele>494.74</ele>
        <time>2024-05-18T13:30:59Z</time>
      </trkpt>
      <trkpt lat="45.47971" lon="5.22685">
        <ele>493.77</ele>
        <time>2024-05-18T13:31:14Z</time>
      </trkpt>
      <trkpt lat="45.47984" lon="5.2266">
        <ele>491.85</ele>
        <time>2024-05-18T13:31:28Z</time>
      </trkpt>
      <trkpt lat="45.47995" lon="5.22635">
        <ele>491.85</ele>
        <time>2024-05-18T13:31:42Z</time>
      </trkpt>
      <trkpt lat="45.48002" lon="5.22622">
        <ele>491.85</ele>
        <time>2024-05-18T13:31:49Z</time>
      </trkpt>
      <trkpt lat="45.48003" lon="5.22621">
        <ele>491.85</ele>
        <time>2024-05-18T13:31:50Z</time>
      </trkpt>
      <trkpt lat="45.48018" lon="5.22575">
        <ele>491.37</ele>
        <time>2024-05-18T13:32:11Z</time>
      </trkpt>
      <trkpt lat="45.48037" lon="5.22538">
        <ele>491.85</ele>
        <time>2024-05-18T13:32:32Z</time>
      </trkpt>
      <trkpt lat="45.48046" lon="5.22515">
        <ele>489.93</ele>
        <time>2024-05-18T13:32:49Z</time>
      </trkpt>
      <trkpt lat="45.48049" lon="5.22513">
        <ele>490.89</ele>
        <time>2024-05-18T13:33:07Z</time>
      </trkpt>
      <trkpt lat="45.48054" lon="5.22512">
        <ele>493.77</ele>
        <time>2024-05-18T13:33:28Z</time>
      </trkpt>
      <trkpt lat="45.48054" lon="5.2251">
        <ele>493.77</ele>
        <time>2024-05-18T13:33:50Z</time>
      </trkpt>
      <trkpt lat="45.4806" lon="5.22502">
        <ele>492.81</ele>
        <time>2024-05-18T13:34:03Z</time>
      </trkpt>
      <trkpt lat="45.48062" lon="5.22498">
        <ele>492.81</ele>
        <time>2024-05-18T13:34:06Z</time>
      </trkpt>
      <trkpt lat="45.48068" lon="5.22467">
        <ele>492.33</ele>
        <time>2024-05-18T13:34:23Z</time>
      </trkpt>
      <trkpt lat="45.4808" lon="5.22418">
        <ele>491.37</ele>
        <time>2024-05-18T13:34:46Z</time>
      </trkpt>
      <trkpt lat="45.48089" lon="5.22384">
        <ele>488.97</ele>
        <time>2024-05-18T13:35:03Z</time>
      </trkpt>
      <trkpt lat="45.48099" lon="5.22346">
        <ele>489.45</ele>
        <time>2024-05-18T13:35:21Z</time>
      </trkpt>
      <trkpt lat="45.48111" lon="5.22309">
        <ele>490.89</ele>
        <time>2024-05-18T13:35:40Z</time>
      </trkpt>
      <trkpt lat="45.4812" lon="5.22266">
        <ele>490.41</ele>
        <time>2024-05-18T13:36:02Z</time>
      </trkpt>
      <trkpt lat="45.48128" lon="5.22225">
        <ele>490.89</ele>
        <time>2024-05-18T13:36:21Z</time>
      </trkpt>
      <trkpt lat="45.48136" lon="5.22187">
        <ele>489.93</ele>
        <time>2024-05-18T13:36:40Z</time>
      </trkpt>
      <trkpt lat="45.48146" lon="5.22135">
        <ele>490.89</ele>
        <time>2024-05-18T13:37:04Z</time>
      </trkpt>
      <trkpt lat="45.48159" lon="5.22093">
        <ele>491.37</ele>
        <time>2024-05-18T13:37:25Z</time>
      </trkpt>
      <trkpt lat="45.48169" lon="5.22053">
        <ele>492.33</ele>
        <time>2024-05-18T13:37:45Z</time>
      </trkpt>
      <trkpt lat="45.4818" lon="5.2201">
        <ele>490.41</ele>
        <time>2024-05-18T13:38:06Z</time>
      </trkpt>
      <trkpt lat="45.48174" lon="5.21986">
        <ele>489.45</ele>
        <time>2024-05-18T13:38:22Z</time>
      </trkpt>
      <trkpt lat="45.48143" lon="5.21998">
        <ele>488.49</ele>
        <time>2024-05-18T13:38:41Z</time>
      </trkpt>
      <trkpt lat="45.48114" lon="5.2201">
        <ele>488.01</ele>
        <time>2024-05-18T13:39:00Z</time>
      </trkpt>
      <trkpt lat="45.48101" lon="5.2202">
        <ele>485.6</ele>
        <time>2024-05-18T13:39:16Z</time>
      </trkpt>
      <trkpt lat="45.481" lon="5.2202">
        <ele>484.64</ele>
        <time>2024-05-18T13:39:38Z</time>
      </trkpt>
      <trkpt lat="45.48102" lon="5.22017">
        <ele>483.68</ele>
        <time>2024-05-18T13:39:58Z</time>
      </trkpt>
      <trkpt lat="45.48102" lon="5.22019">
        <ele>480.8</ele>
        <time>2024-05-18T13:40:18Z</time>
      </trkpt>
      <trkpt lat="45.48103" lon="5.22016">
        <ele>479.84</ele>
        <time>2024-05-18T13:40:40Z</time>
      </trkpt>
      <trkpt lat="45.48113" lon="5.22012">
        <ele>481.28</ele>
        <time>2024-05-18T13:40:56Z</time>
      </trkpt>
      <trkpt lat="45.48142" lon="5.21999">
        <ele>483.2</ele>
        <time>2024-05-18T13:41:16Z</time>
      </trkpt>
      <trkpt lat="45.48171" lon="5.21989">
        <ele>483.68</ele>
        <time>2024-05-18T13:41:36Z</time>
      </trkpt>
      <trkpt lat="45.48188" lon="5.21971">
        <ele>485.6</ele>
        <time>2024-05-18T13:41:51Z</time>
      </trkpt>
      <trkpt lat="45.48195" lon="5.21934">
        <ele>484.64</ele>
        <time>2024-05-18T13:42:08Z</time>
      </trkpt>
      <trkpt lat="45.48195" lon="5.21932">
        <ele>484.64</ele>
        <time>2024-05-18T13:42:09Z</time>
      </trkpt>
      <trkpt lat="45.48195" lon="5.2193">
        <ele>484.64</ele>
        <time>2024-05-18T13:42:10Z</time>
      </trkpt>
      <trkpt lat="45.48196" lon="5.21928">
        <ele>484.64</ele>
        <time>2024-05-18T13:42:11Z</time>
      </trkpt>
      <trkpt lat="45.48196" lon="5.21926">
        <ele>484.64</ele>
        <time>2024-05-18T13:42:12Z</time>
      </trkpt>
      <trkpt lat="45.48203" lon="5.21882">
        <ele>484.16</ele>
        <time>2024-05-18T13:42:31Z</time>
      </trkpt>
      <trkpt lat="45.48216" lon="5.21835">
        <ele>482.24</ele>
        <time>2024-05-18T13:42:53Z</time>
      </trkpt>
      <trkpt lat="45.48233" lon="5.21801">
        <ele>481.76</ele>
        <time>2024-05-18T13:43:12Z</time>
      </trkpt>
      <trkpt lat="45.48255" lon="5.21764">
        <ele>482.24</ele>
        <time>2024-05-18T13:43:32Z</time>
      </trkpt>
      <trkpt lat="45.4826" lon="5.21759">
        <ele>482.24</ele>
        <time>2024-05-18T13:43:40Z</time>
      </trkpt>
      <trkpt lat="45.48261" lon="5.2176">
        <ele>482.24</ele>
        <time>2024-05-18T13:43:41Z</time>
      </trkpt>
      <trkpt lat="45.48264" lon="5.21758">
        <ele>482.24</ele>
        <time>2024-05-18T13:43:52Z</time>
      </trkpt>
      <trkpt lat="45.48262" lon="5.21757">
        <ele>481.76</ele>
        <time>2024-05-18T13:44:17Z</time>
      </trkpt>
      <trkpt lat="45.48263" lon="5.21756">
        <ele>482.72</ele>
        <time>2024-05-18T13:44:38Z</time>
      </trkpt>
      <trkpt lat="45.48262" lon="5.21755">
        <ele>481.76</ele>
        <time>2024-05-18T13:44:59Z</time>
      </trkpt>
      <trkpt lat="45.4826" lon="5.21752">
        <ele>482.24</ele>
        <time>2024-05-18T13:45:12Z</time>
      </trkpt>
      <trkpt lat="45.48259" lon="5.21751">
        <ele>482.24</ele>
        <time>2024-05-18T13:45:13Z</time>
      </trkpt>
      <trkpt lat="45.48236" lon="5.21733">
        <ele>481.28</ele>
        <time>2024-05-18T13:45:32Z</time>
      </trkpt>
      <trkpt lat="45.48212" lon="5.21709">
        <ele>480.32</ele>
        <time>2024-05-18T13:45:49Z</time>
      </trkpt>
      <trkpt lat="45.48186" lon="5.21681">
        <ele>478.87</ele>
        <time>2024-05-18T13:46:09Z</time>
      </trkpt>
      <trkpt lat="45.48176" lon="5.21664">
        <ele>479.35</ele>
        <time>2024-05-18T13:46:19Z</time>
      </trkpt>
      <trkpt lat="45.48177" lon="5.21661">
        <ele>478.87</ele>
        <time>2024-05-18T13:46:20Z</time>
      </trkpt>
      <trkpt lat="45.48177" lon="5.21659">
        <ele>478.87</ele>
        <time>2024-05-18T13:46:21Z</time>
      </trkpt>
      <trkpt lat="45.48178" lon="5.21657">
        <ele>478.87</ele>
        <time>2024-05-18T13:46:22Z</time>
      </trkpt>
      <trkpt lat="45.4818" lon="5.21655">
        <ele>478.87</ele>
        <time>2024-05-18T13:46:23Z</time>
      </trkpt>
      <trkpt lat="45.4818" lon="5.21653">
        <ele>478.87</ele>
        <time>2024-05-18T13:46:24Z</time>
      </trkpt>
      <trkpt lat="45.48181" lon="5.21651">
        <ele>478.87</ele>
        <time>2024-05-18T13:46:25Z</time>
      </trkpt>
      <trkpt lat="45.48183" lon="5.21649">
        <ele>478.87</ele>
        <time>2024-05-18T13:46:26Z</time>
      </trkpt>
      <trkpt lat="45.48205" lon="5.21618">
        <ele>477.91</ele>
        <time>2024-05-18T13:46:45Z</time>
      </trkpt>
      <trkpt lat="45.48224" lon="5.21579">
        <ele>478.39</ele>
        <time>2024-05-18T13:47:04Z</time>
      </trkpt>
      <trkpt lat="45.48239" lon="5.21545">
        <ele>478.87</ele>
        <time>2024-05-18T13:47:23Z</time>
      </trkpt>
      <trkpt lat="45.48235" lon="5.21504">
        <ele>475.99</ele>
        <time>2024-05-18T13:47:40Z</time>
      </trkpt>
      <trkpt lat="45.48224" lon="5.21452">
        <ele>472.14</ele>
        <time>2024-05-18T13:48:01Z</time>
      </trkpt>
      <trkpt lat="45.48208" lon="5.21423">
        <ele>470.7</ele>
        <time>2024-05-18T13:48:17Z</time>
      </trkpt>
      <trkpt lat="45.4819" lon="5.21389">
        <ele>471.66</ele>
        <time>2024-05-18T13:48:36Z</time>
      </trkpt>
      <trkpt lat="45.48172" lon="5.21365">
        <ele>474.55</ele>
        <time>2024-05-18T13:48:52Z</time>
      </trkpt>
      <trkpt lat="45.48165" lon="5.21353">
        <ele>475.99</ele>
        <time>2024-05-18T13:49:05Z</time>
      </trkpt>
      <trkpt lat="45.48163" lon="5.21355">
        <ele>476.95</ele>
        <time>2024-05-18T13:49:11Z</time>
      </trkpt>
      <trkpt lat="45.48161" lon="5.21355">
        <ele>476.95</ele>
        <time>2024-05-18T13:49:12Z</time>
      </trkpt>
      <trkpt lat="45.4816" lon="5.21354">
        <ele>477.43</ele>
        <time>2024-05-18T13:49:13Z</time>
      </trkpt>
      <trkpt lat="45.48159" lon="5.21354">
        <ele>477.43</ele>
        <time>2024-05-18T13:49:14Z</time>
      </trkpt>
      <trkpt lat="45.48158" lon="5.21353">
        <ele>477.91</ele>
        <time>2024-05-18T13:49:15Z</time>
      </trkpt>
      <trkpt lat="45.48156" lon="5.21351">
        <ele>478.39</ele>
        <time>2024-05-18T13:49:16Z</time>
      </trkpt>
      <trkpt lat="45.48139" lon="5.21336">
        <ele>479.35</ele>
        <time>2024-05-18T13:49:33Z</time>
      </trkpt>
      <trkpt lat="45.48113" lon="5.2132">
        <ele>482.24</ele>
        <time>2024-05-18T13:49:52Z</time>
      </trkpt>
      <trkpt lat="45.48092" lon="5.21318">
        <ele>481.76</ele>
        <time>2024-05-18T13:50:08Z</time>
      </trkpt>
      <trkpt lat="45.48093" lon="5.21316">
        <ele>482.24</ele>
        <time>2024-05-18T13:50:11Z</time>
      </trkpt>
      <trkpt lat="45.48104" lon="5.21306">
        <ele>481.28</ele>
        <time>2024-05-18T13:50:21Z</time>
      </trkpt>
      <trkpt lat="45.48103" lon="5.21302">
        <ele>481.28</ele>
        <time>2024-05-18T13:50:24Z</time>
      </trkpt>
      <trkpt lat="45.48101" lon="5.21295">
        <ele>480.8</ele>
        <time>2024-05-18T13:50:28Z</time>
      </trkpt>
      <trkpt lat="45.48105" lon="5.21254">
        <ele>485.12</ele>
        <time>2024-05-18T13:50:47Z</time>
      </trkpt>
      <trkpt lat="45.48109" lon="5.21242">
        <ele>488.49</ele>
        <time>2024-05-18T13:50:54Z</time>
      </trkpt>
      <trkpt lat="45.48109" lon="5.21233">
        <ele>490.41</ele>
        <time>2024-05-18T13:50:58Z</time>
      </trkpt>
      <trkpt lat="45.48109" lon="5.21227">
        <ele>490.89</ele>
        <time>2024-05-18T13:51:01Z</time>
      </trkpt>
      <trkpt lat="45.48111" lon="5.21219">
        <ele>492.33</ele>
        <time>2024-05-18T13:51:07Z</time>
      </trkpt>
      <trkpt lat="45.48113" lon="5.21205">
        <ele>493.77</ele>
        <time>2024-05-18T13:51:13Z</time>
      </trkpt>
      <trkpt lat="45.48119" lon="5.21171">
        <ele>499.54</ele>
        <time>2024-05-18T13:51:30Z</time>
      </trkpt>
      <trkpt lat="45.48123" lon="5.21139">
        <ele>504.83</ele>
        <time>2024-05-18T13:51:46Z</time>
      </trkpt>
      <trkpt lat="45.48125" lon="5.21107">
        <ele>510.6</ele>
        <time>2024-05-18T13:52:02Z</time>
      </trkpt>
      <trkpt lat="45.48121" lon="5.21091">
        <ele>513.96</ele>
        <time>2024-05-18T13:52:11Z</time>
      </trkpt>
      <trkpt lat="45.48121" lon="5.21065">
        <ele>518.29</ele>
        <time>2024-05-18T13:52:28Z</time>
      </trkpt>
      <trkpt lat="45.4812" lon="5.2103">
        <ele>521.17</ele>
        <time>2024-05-18T13:52:45Z</time>
      </trkpt>
      <trkpt lat="45.48117" lon="5.20984">
        <ele>522.61</ele>
        <time>2024-05-18T13:53:04Z</time>
      </trkpt>
      <trkpt lat="45.48114" lon="5.20942">
        <ele>523.09</ele>
        <time>2024-05-18T13:53:22Z</time>
      </trkpt>
      <trkpt lat="45.48116" lon="5.20903">
        <ele>525.02</ele>
        <time>2024-05-18T13:53:37Z</time>
      </trkpt>
      <trkpt lat="45.48112" lon="5.20894">
        <ele>525.98</ele>
        <time>2024-05-18T13:53:41Z</time>
      </trkpt>
      <trkpt lat="45.48111" lon="5.20874">
        <ele>528.38</ele>
        <time>2024-05-18T13:53:54Z</time>
      </trkpt>
      <trkpt lat="45.48105" lon="5.2084">
        <ele>533.19</ele>
        <time>2024-05-18T13:54:09Z</time>
      </trkpt>
      <trkpt lat="45.48096" lon="5.20811">
        <ele>533.67</ele>
        <time>2024-05-18T13:54:22Z</time>
      </trkpt>
      <trkpt lat="45.48081" lon="5.20787">
        <ele>535.11</ele>
        <time>2024-05-18T13:54:37Z</time>
      </trkpt>
      <trkpt lat="45.48062" lon="5.20768">
        <ele>536.07</ele>
        <time>2024-05-18T13:54:53Z</time>
      </trkpt>
      <trkpt lat="45.48037" lon="5.20747">
        <ele>533.19</ele>
        <time>2024-05-18T13:55:11Z</time>
      </trkpt>
      <trkpt lat="45.48026" lon="5.20738">
        <ele>531.27</ele>
        <time>2024-05-18T13:55:20Z</time>
      </trkpt>
      <trkpt lat="45.48006" lon="5.20722">
        <ele>529.34</ele>
        <time>2024-05-18T13:55:34Z</time>
      </trkpt>
      <trkpt lat="45.47985" lon="5.20699">
        <ele>525.98</ele>
        <time>2024-05-18T13:55:53Z</time>
      </trkpt>
      <trkpt lat="45.47984" lon="5.20688">
        <ele>524.54</ele>
        <time>2024-05-18T13:55:58Z</time>
      </trkpt>
      <trkpt lat="45.47983" lon="5.20685">
        <ele>524.54</ele>
        <time>2024-05-18T13:55:59Z</time>
      </trkpt>
      <trkpt lat="45.47979" lon="5.20669">
        <ele>525.02</ele>
        <time>2024-05-18T13:56:06Z</time>
      </trkpt>
      <trkpt lat="45.47978" lon="5.20666">
        <ele>525.02</ele>
        <time>2024-05-18T13:56:07Z</time>
      </trkpt>
      <trkpt lat="45.47977" lon="5.20664">
        <ele>525.02</ele>
        <time>2024-05-18T13:56:08Z</time>
      </trkpt>
      <trkpt lat="45.47976" lon="5.20662">
        <ele>525.02</ele>
        <time>2024-05-18T13:56:09Z</time>
      </trkpt>
      <trkpt lat="45.47975" lon="5.20659">
        <ele>525.02</ele>
        <time>2024-05-18T13:56:10Z</time>
      </trkpt>
      <trkpt lat="45.47965" lon="5.20607">
        <ele>530.3</ele>
        <time>2024-05-18T13:56:32Z</time>
      </trkpt>
      <trkpt lat="45.47959" lon="5.20574">
        <ele>531.75</ele>
        <time>2024-05-18T13:56:47Z</time>
      </trkpt>
      <trkpt lat="45.47952" lon="5.20527">
        <ele>527.9</ele>
        <time>2024-05-18T13:57:07Z</time>
      </trkpt>
      <trkpt lat="45.47947" lon="5.20486">
        <ele>527.9</ele>
        <time>2024-05-18T13:57:25Z</time>
      </trkpt>
      <trkpt lat="45.47944" lon="5.20452">
        <ele>525.98</ele>
        <time>2024-05-18T13:57:41Z</time>
      </trkpt>
      <trkpt lat="45.47937" lon="5.2041">
        <ele>525.02</ele>
        <time>2024-05-18T13:57:59Z</time>
      </trkpt>
      <trkpt lat="45.47931" lon="5.20379">
        <ele>524.06</ele>
        <time>2024-05-18T13:58:16Z</time>
      </trkpt>
      <trkpt lat="45.47928" lon="5.2035">
        <ele>522.61</ele>
        <time>2024-05-18T13:58:31Z</time>
      </trkpt>
      <trkpt lat="45.47928" lon="5.20334">
        <ele>522.13</ele>
        <time>2024-05-18T13:58:38Z</time>
      </trkpt>
      <trkpt lat="45.47924" lon="5.20292">
        <ele>525.02</ele>
        <time>2024-05-18T13:58:56Z</time>
      </trkpt>
      <trkpt lat="45.47923" lon="5.20289">
        <ele>525.02</ele>
        <time>2024-05-18T13:58:57Z</time>
      </trkpt>
      <trkpt lat="45.47923" lon="5.20287">
        <ele>525.02</ele>
        <time>2024-05-18T13:58:58Z</time>
      </trkpt>
      <trkpt lat="45.47919" lon="5.20247">
        <ele>526.46</ele>
        <time>2024-05-18T13:59:16Z</time>
      </trkpt>
      <trkpt lat="45.47897" lon="5.20225">
        <ele>524.06</ele>
        <time>2024-05-18T13:59:35Z</time>
      </trkpt>
      <trkpt lat="45.47873" lon="5.20201">
        <ele>523.58</ele>
        <time>2024-05-18T13:59:54Z</time>
      </trkpt>
      <trkpt lat="45.47864" lon="5.20167">
        <ele>523.09</ele>
        <time>2024-05-18T14:00:11Z</time>
      </trkpt>
      <trkpt lat="45.47864" lon="5.20119">
        <ele>522.61</ele>
        <time>2024-05-18T14:00:33Z</time>
      </trkpt>
      <trkpt lat="45.47876" lon="5.20068">
        <ele>523.09</ele>
        <time>2024-05-18T14:00:58Z</time>
      </trkpt>
      <trkpt lat="45.47898" lon="5.20011">
        <ele>524.06</ele>
        <time>2024-05-18T14:01:26Z</time>
      </trkpt>
      <trkpt lat="45.47915" lon="5.19976">
        <ele>525.5</ele>
        <time>2024-05-18T14:01:47Z</time>
      </trkpt>
      <trkpt lat="45.47915" lon="5.19977">
        <ele>524.06</ele>
        <time>2024-05-18T14:02:14Z</time>
      </trkpt>
      <trkpt lat="45.47914" lon="5.19977">
        <ele>523.58</ele>
        <time>2024-05-18T14:02:35Z</time>
      </trkpt>
      <trkpt lat="45.47916" lon="5.19974">
        <ele>523.58</ele>
        <time>2024-05-18T14:02:53Z</time>
      </trkpt>
      <trkpt lat="45.47915" lon="5.19972">
        <ele>524.54</ele>
        <time>2024-05-18T14:03:14Z</time>
      </trkpt>
      <trkpt lat="45.47914" lon="5.19976">
        <ele>525.5</ele>
        <time>2024-05-18T14:03:32Z</time>
      </trkpt>
      <trkpt lat="45.47917" lon="5.19976">
        <ele>523.09</ele>
        <time>2024-05-18T14:04:00Z</time>
      </trkpt>
      <trkpt lat="45.47919" lon="5.19979">
        <ele>524.54</ele>
        <time>2024-05-18T14:04:14Z</time>
      </trkpt>
      <trkpt lat="45.47918" lon="5.19982">
        <ele>524.54</ele>
        <time>2024-05-18T14:04:42Z</time>
      </trkpt>
      <trkpt lat="45.47918" lon="5.19981">
        <ele>523.58</ele>
        <time>2024-05-18T14:05:10Z</time>
      </trkpt>
      <trkpt lat="45.47918" lon="5.19981">
        <ele>523.09</ele>
        <time>2024-05-18T14:05:43Z</time>
      </trkpt>
      <trkpt lat="45.47918" lon="5.19981">
        <ele>524.06</ele>
        <time>2024-05-18T14:06:12Z</time>
      </trkpt>
      <trkpt lat="45.47919" lon="5.19981">
        <ele>524.06</ele>
        <time>2024-05-18T14:06:40Z</time>
      </trkpt>
      <trkpt lat="45.47918" lon="5.19982">
        <ele>523.58</ele>
        <time>2024-05-18T14:07:06Z</time>
      </trkpt>
      <trkpt lat="45.47919" lon="5.19982">
        <ele>524.06</ele>
        <time>2024-05-18T14:07:29Z</time>
      </trkpt>
      <trkpt lat="45.47917" lon="5.19981">
        <ele>524.06</ele>
        <time>2024-05-18T14:07:52Z</time>
      </trkpt>
      <trkpt lat="45.47918" lon="5.19979">
        <ele>524.06</ele>
        <time>2024-05-18T14:08:25Z</time>
      </trkpt>
      <trkpt lat="45.47918" lon="5.19976">
        <ele>524.54</ele>
        <time>2024-05-18T14:08:56Z</time>
      </trkpt>
      <trkpt lat="45.47923" lon="5.19979">
        <ele>525.98</ele>
        <time>2024-05-18T14:09:17Z</time>
      </trkpt>
      <trkpt lat="45.47922" lon="5.19981">
        <ele>525.5</ele>
        <time>2024-05-18T14:09:49Z</time>
      </trkpt>
      <trkpt lat="45.47922" lon="5.19981">
        <ele>525.02</ele>
        <time>2024-05-18T14:10:12Z</time>
      </trkpt>
      <trkpt lat="45.47923" lon="5.1998">
        <ele>524.54</ele>
        <time>2024-05-18T14:10:43Z</time>
      </trkpt>
      <trkpt lat="45.47919" lon="5.1998">
        <ele>524.06</ele>
        <time>2024-05-18T14:11:04Z</time>
      </trkpt>
      <trkpt lat="45.47917" lon="5.19984">
        <ele>525.5</ele>
        <time>2024-05-18T14:11:29Z</time>
      </trkpt>
      <trkpt lat="45.47919" lon="5.1998">
        <ele>525.5</ele>
        <time>2024-05-18T14:11:53Z</time>
      </trkpt>
      <trkpt lat="45.47919" lon="5.19981">
        <ele>523.58</ele>
        <time>2024-05-18T14:12:17Z</time>
      </trkpt>
      <trkpt lat="45.47919" lon="5.19979">
        <ele>521.65</ele>
        <time>2024-05-18T14:12:43Z</time>
      </trkpt>
      <trkpt lat="45.47917" lon="5.19982">
        <ele>522.61</ele>
        <time>2024-05-18T14:13:10Z</time>
      </trkpt>
      <trkpt lat="45.47917" lon="5.1998">
        <ele>523.58</ele>
        <time>2024-05-18T14:13:35Z</time>
      </trkpt>
      <trkpt lat="45.47917" lon="5.1998">
        <ele>524.54</ele>
        <time>2024-05-18T14:14:02Z</time>
      </trkpt>
      <trkpt lat="45.47916" lon="5.19982">
        <ele>523.09</ele>
        <time>2024-05-18T14:14:29Z</time>
      </trkpt>
      <trkpt lat="45.47915" lon="5.1998">
        <ele>523.58</ele>
        <time>2024-05-18T14:14:48Z</time>
      </trkpt>
      <trkpt lat="45.47915" lon="5.19981">
        <ele>523.58</ele>
        <time>2024-05-18T14:15:11Z</time>
      </trkpt>
      <trkpt lat="45.47915" lon="5.19981">
        <ele>524.54</ele>
        <time>2024-05-18T14:15:37Z</time>
      </trkpt>
      <trkpt lat="45.47916" lon="5.19984">
        <ele>525.02</ele>
        <time>2024-05-18T14:16:06Z</time>
      </trkpt>
      <trkpt lat="45.47917" lon="5.19982">
        <ele>525.02</ele>
        <time>2024-05-18T14:16:27Z</time>
      </trkpt>
      <trkpt lat="45.47917" lon="5.19982">
        <ele>524.54</ele>
        <time>2024-05-18T14:16:48Z</time>
      </trkpt>
      <trkpt lat="45.47917" lon="5.19982">
        <ele>525.98</ele>
        <time>2024-05-18T14:17:20Z</time>
      </trkpt>
      <trkpt lat="45.47916" lon="5.1998">
        <ele>523.58</ele>
        <time>2024-05-18T14:17:55Z</time>
      </trkpt>
      <trkpt lat="45.47917" lon="5.19981">
        <ele>525.98</ele>
        <time>2024-05-18T14:18:25Z</time>
      </trkpt>
      <trkpt lat="45.47918" lon="5.19977">
        <ele>526.94</ele>
        <time>2024-05-18T14:18:54Z</time>
      </trkpt>
      <trkpt lat="45.47918" lon="5.19978">
        <ele>526.46</ele>
        <time>2024-05-18T14:19:28Z</time>
      </trkpt>
      <trkpt lat="45.47917" lon="5.19978">
        <ele>522.13</ele>
        <time>2024-05-18T14:20:01Z</time>
      </trkpt>
      <trkpt lat="45.47918" lon="5.1998">
        <ele>524.06</ele>
        <time>2024-05-18T14:20:33Z</time>
      </trkpt>
      <trkpt lat="45.47918" lon="5.1998">
        <ele>524.06</ele>
        <time>2024-05-18T14:21:07Z</time>
      </trkpt>
      <trkpt lat="45.47916" lon="5.19977">
        <ele>524.54</ele>
        <time>2024-05-18T14:21:31Z</time>
      </trkpt>
      <trkpt lat="45.4792" lon="5.19981">
        <ele>524.54</ele>
        <time>2024-05-18T14:21:48Z</time>
      </trkpt>
      <trkpt lat="45.4792" lon="5.19979">
        <ele>525.02</ele>
        <time>2024-05-18T14:22:01Z</time>
      </trkpt>
      <trkpt lat="45.47927" lon="5.19983">
        <ele>524.06</ele>
        <time>2024-05-18T14:22:12Z</time>
      </trkpt>
      <trkpt lat="45.47931" lon="5.19982">
        <ele>523.58</ele>
        <time>2024-05-18T14:22:18Z</time>
      </trkpt>
      <trkpt lat="45.47938" lon="5.19979">
        <ele>522.13</ele>
        <time>2024-05-18T14:22:30Z</time>
      </trkpt>
      <trkpt lat="45.47941" lon="5.19974">
        <ele>522.61</ele>
        <time>2024-05-18T14:22:48Z</time>
      </trkpt>
      <trkpt lat="45.47941" lon="5.19974">
        <ele>522.13</ele>
        <time>2024-05-18T14:23:05Z</time>
      </trkpt>
      <trkpt lat="45.47941" lon="5.19974">
        <ele>524.54</ele>
        <time>2024-05-18T14:23:29Z</time>
      </trkpt>
      <trkpt lat="45.47942" lon="5.19971">
        <ele>524.06</ele>
        <time>2024-05-18T14:24:09Z</time>
      </trkpt>
      <trkpt lat="45.47942" lon="5.19974">
        <ele>523.58</ele>
        <time>2024-05-18T14:24:28Z</time>
      </trkpt>
      <trkpt lat="45.47941" lon="5.19975">
        <ele>521.17</ele>
        <time>2024-05-18T14:24:54Z</time>
      </trkpt>
      <trkpt lat="45.47941" lon="5.19976">
        <ele>522.13</ele>
        <time>2024-05-18T14:25:08Z</time>
      </trkpt>
      <trkpt lat="45.47938" lon="5.1998">
        <ele>521.65</ele>
        <time>2024-05-18T14:25:21Z</time>
      </trkpt>
      <trkpt lat="45.4793" lon="5.19981">
        <ele>522.61</ele>
        <time>2024-05-18T14:25:34Z</time>
      </trkpt>
      <trkpt lat="45.47924" lon="5.19981">
        <ele>522.61</ele>
        <time>2024-05-18T14:25:47Z</time>
      </trkpt>
      <trkpt lat="45.47917" lon="5.19976">
        <ele>522.61</ele>
        <time>2024-05-18T14:26:01Z</time>
      </trkpt>
      <trkpt lat="45.47916" lon="5.19977">
        <ele>521.65</ele>
        <time>2024-05-18T14:26:15Z</time>
      </trkpt>
      <trkpt lat="45.47917" lon="5.19978">
        <ele>522.61</ele>
        <time>2024-05-18T14:26:29Z</time>
      </trkpt>
      <trkpt lat="45.47915" lon="5.1998">
        <ele>522.61</ele>
        <time>2024-05-18T14:26:43Z</time>
      </trkpt>
      <trkpt lat="45.47917" lon="5.19981">
        <ele>522.61</ele>
        <time>2024-05-18T14:26:56Z</time>
      </trkpt>
      <trkpt lat="45.47913" lon="5.1998">
        <ele>522.61</ele>
        <time>2024-05-18T14:27:22Z</time>
      </trkpt>
      <trkpt lat="45.47914" lon="5.19979">
        <ele>523.09</ele>
        <time>2024-05-18T14:27:42Z</time>
      </trkpt>
      <trkpt lat="45.47913" lon="5.1998">
        <ele>522.13</ele>
        <time>2024-05-18T14:28:02Z</time>
      </trkpt>
      <trkpt lat="45.47914" lon="5.19981">
        <ele>522.13</ele>
        <time>2024-05-18T14:28:19Z</time>
      </trkpt>
      <trkpt lat="45.47915" lon="5.19981">
        <ele>521.17</ele>
        <time>2024-05-18T14:28:36Z</time>
      </trkpt>
      <trkpt lat="45.47915" lon="5.19982">
        <ele>522.61</ele>
        <time>2024-05-18T14:29:04Z</time>
      </trkpt>
      <trkpt lat="45.47913" lon="5.19983">
        <ele>524.06</ele>
        <time>2024-05-18T14:29:29Z</time>
      </trkpt>
      <trkpt lat="45.47914" lon="5.19982">
        <ele>523.09</ele>
        <time>2024-05-18T14:29:58Z</time>
      </trkpt>
      <trkpt lat="45.47916" lon="5.19979">
        <ele>519.73</ele>
        <time>2024-05-18T14:30:34Z</time>
      </trkpt>
      <trkpt lat="45.47915" lon="5.19978">
        <ele>522.61</ele>
        <time>2024-05-18T14:31:13Z</time>
      </trkpt>
      <trkpt lat="45.47915" lon="5.19979">
        <ele>521.17</ele>
        <time>2024-05-18T14:31:45Z</time>
      </trkpt>
      <trkpt lat="45.47916" lon="5.19978">
        <ele>520.21</ele>
        <time>2024-05-18T14:32:21Z</time>
      </trkpt>
      <trkpt lat="45.47917" lon="5.19976">
        <ele>518.29</ele>
        <time>2024-05-18T14:32:59Z</time>
      </trkpt>
      <trkpt lat="45.47917" lon="5.19978">
        <ele>521.17</ele>
        <time>2024-05-18T14:33:17Z</time>
      </trkpt>
      <trkpt lat="45.47923" lon="5.19982">
        <ele>522.13</ele>
        <time>2024-05-18T14:33:33Z</time>
      </trkpt>
      <trkpt lat="45.47927" lon="5.19985">
        <ele>523.09</ele>
        <time>2024-05-18T14:33:46Z</time>
      </trkpt>
      <trkpt lat="45.47926" lon="5.19984">
        <ele>520.69</ele>
        <time>2024-05-18T14:34:06Z</time>
      </trkpt>
      <trkpt lat="45.47927" lon="5.19982">
        <ele>521.65</ele>
        <time>2024-05-18T14:34:25Z</time>
      </trkpt>
      <trkpt lat="45.47925" lon="5.19982">
        <ele>522.61</ele>
        <time>2024-05-18T14:34:43Z</time>
      </trkpt>
      <trkpt lat="45.47923" lon="5.19984">
        <ele>522.61</ele>
        <time>2024-05-18T14:34:56Z</time>
      </trkpt>
      <trkpt lat="45.47922" lon="5.19982">
        <ele>521.65</ele>
        <time>2024-05-18T14:35:13Z</time>
      </trkpt>
      <trkpt lat="45.4792" lon="5.19982">
        <ele>521.65</ele>
        <time>2024-05-18T14:35:26Z</time>
      </trkpt>
      <trkpt lat="45.47914" lon="5.19981">
        <ele>520.69</ele>
        <time>2024-05-18T14:35:38Z</time>
      </trkpt>
      <trkpt lat="45.47912" lon="5.19981">
        <ele>521.17</ele>
        <time>2024-05-18T14:35:41Z</time>
      </trkpt>
      <trkpt lat="45.47905" lon="5.2">
        <ele>521.17</ele>
        <time>2024-05-18T14:35:56Z</time>
      </trkpt>
      <trkpt lat="45.479" lon="5.20017">
        <ele>521.17</ele>
        <time>2024-05-18T14:36:07Z</time>
      </trkpt>
      <trkpt lat="45.47899" lon="5.20019">
        <ele>521.17</ele>
        <time>2024-05-18T14:36:08Z</time>
      </trkpt>
      <trkpt lat="45.47898" lon="5.2002">
        <ele>520.69</ele>
        <time>2024-05-18T14:36:09Z</time>
      </trkpt>
      <trkpt lat="45.47898" lon="5.20022">
        <ele>520.69</ele>
        <time>2024-05-18T14:36:10Z</time>
      </trkpt>
      <trkpt lat="45.47897" lon="5.20024">
        <ele>520.69</ele>
        <time>2024-05-18T14:36:11Z</time>
      </trkpt>
      <trkpt lat="45.47896" lon="5.20026">
        <ele>520.21</ele>
        <time>2024-05-18T14:36:12Z</time>
      </trkpt>
      <trkpt lat="45.47895" lon="5.20027">
        <ele>520.21</ele>
        <time>2024-05-18T14:36:13Z</time>
      </trkpt>
      <trkpt lat="45.47888" lon="5.20046">
        <ele>522.13</ele>
        <time>2024-05-18T14:36:26Z</time>
      </trkpt>
      <trkpt lat="45.47883" lon="5.20055">
        <ele>522.61</ele>
        <time>2024-05-18T14:36:39Z</time>
      </trkpt>
      <trkpt lat="45.47882" lon="5.20059">
        <ele>523.09</ele>
        <time>2024-05-18T14:36:51Z</time>
      </trkpt>
      <trkpt lat="45.47882" lon="5.20061">
        <ele>523.09</ele>
        <time>2024-05-18T14:36:52Z</time>
      </trkpt>
      <trkpt lat="45.47881" lon="5.20063">
        <ele>522.61</ele>
        <time>2024-05-18T14:36:53Z</time>
      </trkpt>
      <trkpt lat="45.47881" lon="5.20064">
        <ele>522.61</ele>
        <time>2024-05-18T14:36:54Z</time>
      </trkpt>
      <trkpt lat="45.4788" lon="5.20066">
        <ele>522.61</ele>
        <time>2024-05-18T14:36:55Z</time>
      </trkpt>
      <trkpt lat="45.47879" lon="5.20068">
        <ele>522.61</ele>
        <time>2024-05-18T14:36:56Z</time>
      </trkpt>
      <trkpt lat="45.47878" lon="5.2007">
        <ele>522.61</ele>
        <time>2024-05-18T14:36:57Z</time>
      </trkpt>
      <trkpt lat="45.47877" lon="5.20072">
        <ele>522.61</ele>
        <time>2024-05-18T14:36:58Z</time>
      </trkpt>
      <trkpt lat="45.47872" lon="5.20097">
        <ele>521.17</ele>
        <time>2024-05-18T14:37:12Z</time>
      </trkpt>
      <trkpt lat="45.47869" lon="5.20113">
        <ele>521.65</ele>
        <time>2024-05-18T14:37:24Z</time>
      </trkpt>
      <trkpt lat="45.47866" lon="5.20141">
        <ele>523.09</ele>
        <time>2024-05-18T14:37:39Z</time>
      </trkpt>
      <trkpt lat="45.47866" lon="5.20168">
        <ele>524.54</ele>
        <time>2024-05-18T14:37:52Z</time>
      </trkpt>
      <trkpt lat="45.47868" lon="5.20179">
        <ele>524.54</ele>
        <time>2024-05-18T14:38:01Z</time>
      </trkpt>
      <trkpt lat="45.47869" lon="5.2018">
        <ele>524.54</ele>
        <time>2024-05-18T14:38:02Z</time>
      </trkpt>
      <trkpt lat="45.47869" lon="5.20182">
        <ele>524.54</ele>
        <time>2024-05-18T14:38:03Z</time>
      </trkpt>
      <trkpt lat="45.47878" lon="5.202">
        <ele>522.61</ele>
        <time>2024-05-18T14:38:18Z</time>
      </trkpt>
      <trkpt lat="45.47892" lon="5.20218">
        <ele>522.13</ele>
        <time>2024-05-18T14:38:32Z</time>
      </trkpt>
      <trkpt lat="45.47902" lon="5.2023">
        <ele>522.13</ele>
        <time>2024-05-18T14:38:43Z</time>
      </trkpt>
      <trkpt lat="45.47903" lon="5.20231">
        <ele>522.13</ele>
        <time>2024-05-18T14:38:44Z</time>
      </trkpt>
      <trkpt lat="45.47904" lon="5.20232">
        <ele>522.13</ele>
        <time>2024-05-18T14:38:45Z</time>
      </trkpt>
      <trkpt lat="45.47905" lon="5.20233">
        <ele>522.61</ele>
        <time>2024-05-18T14:38:46Z</time>
      </trkpt>
      <trkpt lat="45.47906" lon="5.20234">
        <ele>522.61</ele>
        <time>2024-05-18T14:38:47Z</time>
      </trkpt>
      <trkpt lat="45.47924" lon="5.20246">
        <ele>522.61</ele>
        <time>2024-05-18T14:39:04Z</time>
      </trkpt>
      <trkpt lat="45.47926" lon="5.20246">
        <ele>524.06</ele>
        <time>2024-05-18T14:39:21Z</time>
      </trkpt>
      <trkpt lat="45.47925" lon="5.2025">
        <ele>523.09</ele>
        <time>2024-05-18T14:39:47Z</time>
      </trkpt>
      <trkpt lat="45.47924" lon="5.20255">
        <ele>522.61</ele>
        <time>2024-05-18T14:39:49Z</time>
      </trkpt>
      <trkpt lat="45.47916" lon="5.20271">
        <ele>520.21</ele>
        <time>2024-05-18T14:40:01Z</time>
      </trkpt>
      <trkpt lat="45.47898" lon="5.20278">
        <ele>520.69</ele>
        <time>2024-05-18T14:40:16Z</time>
      </trkpt>
      <trkpt lat="45.47897" lon="5.20273">
        <ele>521.65</ele>
        <time>2024-05-18T14:40:28Z</time>
      </trkpt>
      <trkpt lat="45.47898" lon="5.20273">
        <ele>523.09</ele>
        <time>2024-05-18T14:40:49Z</time>
      </trkpt>
      <trkpt lat="45.479" lon="5.20273">
        <ele>524.06</ele>
        <time>2024-05-18T14:41:09Z</time>
      </trkpt>
      <trkpt lat="45.47902" lon="5.20273">
        <ele>524.54</ele>
        <time>2024-05-18T14:41:12Z</time>
      </trkpt>
      <trkpt lat="45.47903" lon="5.20273">
        <ele>524.54</ele>
        <time>2024-05-18T14:41:13Z</time>
      </trkpt>
      <trkpt lat="45.47912" lon="5.20277">
        <ele>525.02</ele>
        <time>2024-05-18T14:41:29Z</time>
      </trkpt>
      <trkpt lat="45.47906" lon="5.2029">
        <ele>524.06</ele>
        <time>2024-05-18T14:41:37Z</time>
      </trkpt>
      <trkpt lat="45.47889" lon="5.20319">
        <ele>524.54</ele>
        <time>2024-05-18T14:41:55Z</time>
      </trkpt>
      <trkpt lat="45.47872" lon="5.20337">
        <ele>525.02</ele>
        <time>2024-05-18T14:42:11Z</time>
      </trkpt>
      <trkpt lat="45.47858" lon="5.20362">
        <ele>526.94</ele>
        <time>2024-05-18T14:42:28Z</time>
      </trkpt>
      <trkpt lat="45.47846" lon="5.20397">
        <ele>525.98</ele>
        <time>2024-05-18T14:42:44Z</time>
      </trkpt>
      <trkpt lat="45.47835" lon="5.20415">
        <ele>524.06</ele>
        <time>2024-05-18T14:42:58Z</time>
      </trkpt>
      <trkpt lat="45.47812" lon="5.20446">
        <ele>525.5</ele>
        <time>2024-05-18T14:43:19Z</time>
      </trkpt>
      <trkpt lat="45.47807" lon="5.20448">
        <ele>525.5</ele>
        <time>2024-05-18T14:43:23Z</time>
      </trkpt>
      <trkpt lat="45.47805" lon="5.20449">
        <ele>525.5</ele>
        <time>2024-05-18T14:43:24Z</time>
      </trkpt>
      <trkpt lat="45.47779" lon="5.20465">
        <ele>527.9</ele>
        <time>2024-05-18T14:43:44Z</time>
      </trkpt>
      <trkpt lat="45.47748" lon="5.20482">
        <ele>526.46</ele>
        <time>2024-05-18T14:43:58Z</time>
      </trkpt>
      <trkpt lat="45.47729" lon="5.20504">
        <ele>526.46</ele>
        <time>2024-05-18T14:44:17Z</time>
      </trkpt>
      <trkpt lat="45.47703" lon="5.20516">
        <ele>528.86</ele>
        <time>2024-05-18T14:44:36Z</time>
      </trkpt>
      <trkpt lat="45.47679" lon="5.20525">
        <ele>530.79</ele>
        <time>2024-05-18T14:44:54Z</time>
      </trkpt>
      <trkpt lat="45.47656" lon="5.20539">
        <ele>530.79</ele>
        <time>2024-05-18T14:45:11Z</time>
      </trkpt>
      <trkpt lat="45.47628" lon="5.20561">
        <ele>530.79</ele>
        <time>2024-05-18T14:45:32Z</time>
      </trkpt>
      <trkpt lat="45.476" lon="5.20577">
        <ele>534.63</ele>
        <time>2024-05-18T14:45:51Z</time>
      </trkpt>
      <trkpt lat="45.47565" lon="5.20588">
        <ele>534.63</ele>
        <time>2024-05-18T14:46:06Z</time>
      </trkpt>
      <trkpt lat="45.47532" lon="5.20608">
        <ele>535.59</ele>
        <time>2024-05-18T14:46:21Z</time>
      </trkpt>
      <trkpt lat="45.4751" lon="5.20627">
        <ele>536.55</ele>
        <time>2024-05-18T14:46:37Z</time>
      </trkpt>
      <trkpt lat="45.47491" lon="5.2064">
        <ele>535.11</ele>
        <time>2024-05-18T14:46:52Z</time>
      </trkpt>
      <trkpt lat="45.47471" lon="5.20656">
        <ele>536.07</ele>
        <time>2024-05-18T14:47:07Z</time>
      </trkpt>
      <trkpt lat="45.47447" lon="5.20661">
        <ele>532.23</ele>
        <time>2024-05-18T14:47:25Z</time>
      </trkpt>
      <trkpt lat="45.47446" lon="5.20661">
        <ele>531.75</ele>
        <time>2024-05-18T14:47:26Z</time>
      </trkpt>
      <trkpt lat="45.47423" lon="5.20662">
        <ele>531.75</ele>
        <time>2024-05-18T14:47:41Z</time>
      </trkpt>
      <trkpt lat="45.47396" lon="5.20664">
        <ele>531.27</ele>
        <time>2024-05-18T14:47:59Z</time>
      </trkpt>
      <trkpt lat="45.47364" lon="5.20672">
        <ele>531.27</ele>
        <time>2024-05-18T14:48:17Z</time>
      </trkpt>
      <trkpt lat="45.47343" lon="5.20673">
        <ele>529.34</ele>
        <time>2024-05-18T14:48:31Z</time>
      </trkpt>
      <trkpt lat="45.47333" lon="5.20676">
        <ele>528.86</ele>
        <time>2024-05-18T14:48:38Z</time>
      </trkpt>
      <trkpt lat="45.47331" lon="5.20677">
        <ele>528.86</ele>
        <time>2024-05-18T14:48:39Z</time>
      </trkpt>
      <trkpt lat="45.4733" lon="5.20677">
        <ele>528.86</ele>
        <time>2024-05-18T14:48:40Z</time>
      </trkpt>
      <trkpt lat="45.47328" lon="5.20678">
        <ele>528.86</ele>
        <time>2024-05-18T14:48:41Z</time>
      </trkpt>
      <trkpt lat="45.47327" lon="5.20679">
        <ele>529.34</ele>
        <time>2024-05-18T14:48:42Z</time>
      </trkpt>
      <trkpt lat="45.47326" lon="5.2068">
        <ele>529.34</ele>
        <time>2024-05-18T14:48:43Z</time>
      </trkpt>
      <trkpt lat="45.47324" lon="5.20681">
        <ele>529.34</ele>
        <time>2024-05-18T14:48:44Z</time>
      </trkpt>
      <trkpt lat="45.47295" lon="5.20692">
        <ele>533.19</ele>
        <time>2024-05-18T14:49:02Z</time>
      </trkpt>
      <trkpt lat="45.47267" lon="5.20684">
        <ele>533.67</ele>
        <time>2024-05-18T14:49:21Z</time>
      </trkpt>
      <trkpt lat="45.47239" lon="5.20673">
        <ele>533.19</ele>
        <time>2024-05-18T14:49:40Z</time>
      </trkpt>
      <trkpt lat="45.47211" lon="5.20684">
        <ele>528.86</ele>
        <time>2024-05-18T14:49:57Z</time>
      </trkpt>
      <trkpt lat="45.47203" lon="5.20692">
        <ele>526.94</ele>
        <time>2024-05-18T14:50:12Z</time>
      </trkpt>
      <trkpt lat="45.47194" lon="5.20695">
        <ele>526.94</ele>
        <time>2024-05-18T14:50:26Z</time>
      </trkpt>
      <trkpt lat="45.47192" lon="5.20693">
        <ele>526.46</ele>
        <time>2024-05-18T14:50:46Z</time>
      </trkpt>
      <trkpt lat="45.47189" lon="5.20699">
        <ele>526.46</ele>
        <time>2024-05-18T14:51:03Z</time>
      </trkpt>
      <trkpt lat="45.47173" lon="5.20708">
        <ele>525.98</ele>
        <time>2024-05-18T14:51:16Z</time>
      </trkpt>
      <trkpt lat="45.4715" lon="5.20721">
        <ele>525.5</ele>
        <time>2024-05-18T14:51:28Z</time>
      </trkpt>
      <trkpt lat="45.47126" lon="5.20727">
        <ele>526.46</ele>
        <time>2024-05-18T14:51:43Z</time>
      </trkpt>
      <trkpt lat="45.47105" lon="5.20727">
        <ele>526.46</ele>
        <time>2024-05-18T14:51:55Z</time>
      </trkpt>
      <trkpt lat="45.4708" lon="5.20741">
        <ele>526.94</ele>
        <time>2024-05-18T14:52:12Z</time>
      </trkpt>
      <trkpt lat="45.47078" lon="5.20743">
        <ele>526.94</ele>
        <time>2024-05-18T14:52:13Z</time>
      </trkpt>
      <trkpt lat="45.47056" lon="5.20766">
        <ele>529.34</ele>
        <time>2024-05-18T14:52:30Z</time>
      </trkpt>
      <trkpt lat="45.47025" lon="5.2077">
        <ele>528.86</ele>
        <time>2024-05-18T14:52:52Z</time>
      </trkpt>
      <trkpt lat="45.46998" lon="5.20766">
        <ele>529.82</ele>
        <time>2024-05-18T14:53:10Z</time>
      </trkpt>
      <trkpt lat="45.46972" lon="5.20767">
        <ele>527.42</ele>
        <time>2024-05-18T14:53:29Z</time>
      </trkpt>
      <trkpt lat="45.4694" lon="5.2078">
        <ele>522.61</ele>
        <time>2024-05-18T14:53:46Z</time>
      </trkpt>
      <trkpt lat="45.46912" lon="5.20794">
        <ele>521.65</ele>
        <time>2024-05-18T14:54:02Z</time>
      </trkpt>
      <trkpt lat="45.46887" lon="5.208">
        <ele>524.54</ele>
        <time>2024-05-18T14:54:19Z</time>
      </trkpt>
      <trkpt lat="45.46868" lon="5.20809">
        <ele>527.42</ele>
        <time>2024-05-18T14:54:35Z</time>
      </trkpt>
      <trkpt lat="45.46843" lon="5.2082">
        <ele>532.71</ele>
        <time>2024-05-18T14:54:54Z</time>
      </trkpt>
      <trkpt lat="45.46818" lon="5.20844">
        <ele>536.55</ele>
        <time>2024-05-18T14:55:11Z</time>
      </trkpt>
      <trkpt lat="45.46814" lon="5.20849">
        <ele>537.99</ele>
        <time>2024-05-18T14:55:14Z</time>
      </trkpt>
      <trkpt lat="45.46812" lon="5.2085">
        <ele>538.48</ele>
        <time>2024-05-18T14:55:15Z</time>
      </trkpt>
      <trkpt lat="45.46783" lon="5.20878">
        <ele>542.8</ele>
        <time>2024-05-18T14:55:32Z</time>
      </trkpt>
      <trkpt lat="45.46747" lon="5.20894">
        <ele>544.24</ele>
        <time>2024-05-18T14:55:55Z</time>
      </trkpt>
      <trkpt lat="45.46716" lon="5.20912">
        <ele>551.93</ele>
        <time>2024-05-18T14:56:15Z</time>
      </trkpt>
      <trkpt lat="45.46687" lon="5.20922">
        <ele>551.93</ele>
        <time>2024-05-18T14:56:34Z</time>
      </trkpt>
      <trkpt lat="45.46661" lon="5.2094">
        <ele>551.93</ele>
        <time>2024-05-18T14:56:51Z</time>
      </trkpt>
      <trkpt lat="45.46631" lon="5.20961">
        <ele>551.45</ele>
        <time>2024-05-18T14:57:12Z</time>
      </trkpt>
      <trkpt lat="45.46601" lon="5.20985">
        <ele>546.17</ele>
        <time>2024-05-18T14:57:35Z</time>
      </trkpt>
      <trkpt lat="45.46573" lon="5.20998">
        <ele>540.88</ele>
        <time>2024-05-18T14:57:52Z</time>
      </trkpt>
      <trkpt lat="45.46544" lon="5.21015">
        <ele>535.59</ele>
        <time>2024-05-18T14:58:11Z</time>
      </trkpt>
      <trkpt lat="45.46509" lon="5.2102">
        <ele>534.15</ele>
        <time>2024-05-18T14:58:33Z</time>
      </trkpt>
      <trkpt lat="45.46485" lon="5.21016">
        <ele>531.27</ele>
        <time>2024-05-18T14:58:50Z</time>
      </trkpt>
      <trkpt lat="45.46458" lon="5.20998">
        <ele>522.61</ele>
        <time>2024-05-18T14:59:09Z</time>
      </trkpt>
      <trkpt lat="45.46442" lon="5.20994">
        <ele>520.21</ele>
        <time>2024-05-18T14:59:18Z</time>
      </trkpt>
      <trkpt lat="45.4642" lon="5.20991">
        <ele>519.73</ele>
        <time>2024-05-18T14:59:35Z</time>
      </trkpt>
      <trkpt lat="45.46384" lon="5.2097">
        <ele>531.75</ele>
        <time>2024-05-18T14:59:54Z</time>
      </trkpt>
      <trkpt lat="45.46356" lon="5.20944">
        <ele>539.92</ele>
        <time>2024-05-18T15:00:12Z</time>
      </trkpt>
      <trkpt lat="45.46334" lon="5.2093">
        <ele>540.4</ele>
        <time>2024-05-18T15:00:31Z</time>
      </trkpt>
      <trkpt lat="45.46323" lon="5.20929">
        <ele>539.92</ele>
        <time>2024-05-18T15:00:38Z</time>
      </trkpt>
      <trkpt lat="45.4631" lon="5.20947">
        <ele>530.79</ele>
        <time>2024-05-18T15:00:56Z</time>
      </trkpt>
      <trkpt lat="45.46308" lon="5.20978">
        <ele>524.06</ele>
        <time>2024-05-18T15:01:13Z</time>
      </trkpt>
      <trkpt lat="45.46306" lon="5.20979">
        <ele>523.09</ele>
        <time>2024-05-18T15:01:14Z</time>
      </trkpt>
      <trkpt lat="45.46305" lon="5.20981">
        <ele>522.61</ele>
        <time>2024-05-18T15:01:15Z</time>
      </trkpt>
      <trkpt lat="45.46299" lon="5.20986">
        <ele>519.25</ele>
        <time>2024-05-18T15:01:20Z</time>
      </trkpt>
      <trkpt lat="45.46297" lon="5.20987">
        <ele>518.77</ele>
        <time>2024-05-18T15:01:21Z</time>
      </trkpt>
      <trkpt lat="45.46267" lon="5.20998">
        <ele>514.92</ele>
        <time>2024-05-18T15:01:40Z</time>
      </trkpt>
      <trkpt lat="45.46248" lon="5.20983">
        <ele>516.37</ele>
        <time>2024-05-18T15:01:52Z</time>
      </trkpt>
      <trkpt lat="45.46215" lon="5.20964">
        <ele>514.92</ele>
        <time>2024-05-18T15:02:10Z</time>
      </trkpt>
      <trkpt lat="45.46174" lon="5.20974">
        <ele>513</ele>
        <time>2024-05-18T15:02:22Z</time>
      </trkpt>
      <trkpt lat="45.46152" lon="5.20987">
        <ele>517.33</ele>
        <time>2024-05-18T15:02:35Z</time>
      </trkpt>
      <trkpt lat="45.4615" lon="5.20987">
        <ele>517.33</ele>
        <time>2024-05-18T15:02:36Z</time>
      </trkpt>
      <trkpt lat="45.46147" lon="5.20987">
        <ele>517.81</ele>
        <time>2024-05-18T15:02:37Z</time>
      </trkpt>
      <trkpt lat="45.46145" lon="5.20986">
        <ele>517.81</ele>
        <time>2024-05-18T15:02:38Z</time>
      </trkpt>
      <trkpt lat="45.46143" lon="5.20986">
        <ele>518.29</ele>
        <time>2024-05-18T15:02:39Z</time>
      </trkpt>
      <trkpt lat="45.46132" lon="5.20971">
        <ele>520.69</ele>
        <time>2024-05-18T15:02:48Z</time>
      </trkpt>
      <trkpt lat="45.46112" lon="5.20942">
        <ele>523.09</ele>
        <time>2024-05-18T15:03:03Z</time>
      </trkpt>
      <trkpt lat="45.46094" lon="5.20916">
        <ele>526.46</ele>
        <time>2024-05-18T15:03:23Z</time>
      </trkpt>
      <trkpt lat="45.46075" lon="5.20883">
        <ele>528.38</ele>
        <time>2024-05-18T15:03:42Z</time>
      </trkpt>
      <trkpt lat="45.4605" lon="5.20853">
        <ele>529.34</ele>
        <time>2024-05-18T15:04:00Z</time>
      </trkpt>
      <trkpt lat="45.46034" lon="5.20826">
        <ele>527.42</ele>
        <time>2024-05-18T15:04:18Z</time>
      </trkpt>
      <trkpt lat="45.46" lon="5.20838">
        <ele>527.9</ele>
        <time>2024-05-18T15:04:39Z</time>
      </trkpt>
      <trkpt lat="45.45971" lon="5.20847">
        <ele>528.86</ele>
        <time>2024-05-18T15:04:59Z</time>
      </trkpt>
      <trkpt lat="45.45945" lon="5.20869">
        <ele>532.23</ele>
        <time>2024-05-18T15:05:20Z</time>
      </trkpt>
      <trkpt lat="45.45938" lon="5.20881">
        <ele>534.63</ele>
        <time>2024-05-18T15:05:27Z</time>
      </trkpt>
      <trkpt lat="45.45937" lon="5.20883">
        <ele>535.59</ele>
        <time>2024-05-18T15:05:28Z</time>
      </trkpt>
      <trkpt lat="45.45936" lon="5.20885">
        <ele>535.59</ele>
        <time>2024-05-18T15:05:29Z</time>
      </trkpt>
      <trkpt lat="45.45935" lon="5.20887">
        <ele>536.07</ele>
        <time>2024-05-18T15:05:30Z</time>
      </trkpt>
      <trkpt lat="45.45933" lon="5.20889">
        <ele>536.55</ele>
        <time>2024-05-18T15:05:31Z</time>
      </trkpt>
      <trkpt lat="45.45932" lon="5.20889">
        <ele>537.99</ele>
        <time>2024-05-18T15:05:32Z</time>
      </trkpt>
      <trkpt lat="45.45928" lon="5.20893">
        <ele>544.4</ele>
      </trkpt>
      <trkpt lat="45.45914" lon="5.20907">
        <ele>546.5</ele>
      </trkpt>
      <trkpt lat="45.45902" lon="5.20918">
        <ele>548.1</ele>
      </trkpt>
      <trkpt lat="45.45881" lon="5.20929">
        <ele>549.7</ele>
      </trkpt>
      <trkpt lat="45.45866" lon="5.20937">
        <ele>550.9</ele>
      </trkpt>
      <trkpt lat="45.45836" lon="5.20948">
        <ele>553.9</ele>
      </trkpt>
      <trkpt lat="45.45819" lon="5.20944">
        <ele>554</ele>
      </trkpt>
      <trkpt lat="45.45801" lon="5.20939">
        <ele>553.8</ele>
      </trkpt>
      <trkpt lat="45.4578" lon="5.20932">
        <ele>553.1</ele>
      </trkpt>
      <trkpt lat="45.45761" lon="5.20927">
        <ele>552.2</ele>
      </trkpt>
      <trkpt lat="45.45745" lon="5.20924">
        <ele>551.5</ele>
      </trkpt>
      <trkpt lat="45.45729" lon="5.20922">
        <ele>551.4</ele>
      </trkpt>
      <trkpt lat="45.45714" lon="5.20921">
        <ele>551.3</ele>
      </trkpt>
      <trkpt lat="45.45696" lon="5.20924">
        <ele>551.5</ele>
      </trkpt>
      <trkpt lat="45.45674" lon="5.20924">
        <ele>552.1</ele>
      </trkpt>
      <trkpt lat="45.45662" lon="5.20924">
        <ele>552.4</ele>
      </trkpt>
      <trkpt lat="45.45639" lon="5.20976">
        <ele>553</ele>
      </trkpt>
      <trkpt lat="45.45617" lon="5.21043">
        <ele>553.4</ele>
      </trkpt>
      <trkpt lat="45.45604" lon="5.21067">
        <ele>554.1</ele>
      </trkpt>
      <trkpt lat="45.45584" lon="5.21082">
        <ele>554.9</ele>
      </trkpt>
      <trkpt lat="45.45566" lon="5.21088">
        <ele>555.2</ele>
      </trkpt>
      <trkpt lat="45.45525" lon="5.21094">
        <ele>555.2</ele>
      </trkpt>
      <trkpt lat="45.45514" lon="5.21104">
        <ele>555.1</ele>
      </trkpt>
      <trkpt lat="45.45509" lon="5.21117">
        <ele>555.7</ele>
      </trkpt>
      <trkpt lat="45.45507" lon="5.21141">
        <ele>557</ele>
      </trkpt>
      <trkpt lat="45.45504" lon="5.21162">
        <ele>557.1</ele>
      </trkpt>
      <trkpt lat="45.45501" lon="5.21196">
        <ele>558.1</ele>
      </trkpt>
      <trkpt lat="45.45491" lon="5.21221">
        <ele>557.3</ele>
      </trkpt>
      <trkpt lat="45.45473" lon="5.21237">
        <ele>554.7</ele>
      </trkpt>
      <trkpt lat="45.45451" lon="5.21251">
        <ele>552.7</ele>
      </trkpt>
      <trkpt lat="45.45443" lon="5.21268">
        <ele>552.5</ele>
      </trkpt>
      <trkpt lat="45.4544" lon="5.2128">
        <ele>552.7</ele>
        <extensions>
          <visugpx:TrkExtension xmlns:visugpx="https://www.visugpx.com/editgpx/">
            <visugpx:node>1</visugpx:node>
            </visugpx:TrkExtension>
        </extensions>
      </trkpt>
      <trkpt lat="45.4544" lon="5.21297">
        <ele>552.8</ele>
      </trkpt>
      <trkpt lat="45.45444" lon="5.21314">
        <ele>553</ele>
      </trkpt>
      <trkpt lat="45.45455" lon="5.2133">
        <ele>553.4</ele>
      </trkpt>
      <trkpt lat="45.4547" lon="5.21351">
        <ele>553.8</ele>
      </trkpt>
      <trkpt lat="45.45489" lon="5.21379">
        <ele>554.3</ele>
      </trkpt>
      <trkpt lat="45.45515" lon="5.21414">
        <ele>555.1</ele>
      </trkpt>
      <trkpt lat="45.4554" lon="5.21461">
        <ele>555.7</ele>
      </trkpt>
      <trkpt lat="45.45556" lon="5.2149">
        <ele>555.4</ele>
      </trkpt>
      <trkpt lat="45.45567" lon="5.21529">
        <ele>554.4</ele>
      </trkpt>
      <trkpt lat="45.45575" lon="5.21577">
        <ele>552.7</ele>
      </trkpt>
      <trkpt lat="45.45575" lon="5.21707">
        <ele>553.2</ele>
      </trkpt>
      <trkpt lat="45.45577" lon="5.2175">
        <ele>554.1</ele>
      </trkpt>
      <trkpt lat="45.45584" lon="5.21761">
        <ele>554.6</ele>
      </trkpt>
      <trkpt lat="45.45603" lon="5.21788">
        <ele>555.2</ele>
      </trkpt>
      <trkpt lat="45.45646" lon="5.21816">
        <ele>557.3</ele>
      </trkpt>
      <trkpt lat="45.45704" lon="5.21847">
        <ele>559</ele>
      </trkpt>
      <trkpt lat="45.45721" lon="5.21857">
        <ele>559.9</ele>
        <extensions>
          <visugpx:TrkExtension xmlns:visugpx="https://www.visugpx.com/editgpx/">
            <visugpx:node>2</visugpx:node>
            </visugpx:TrkExtension>
        </extensions>
      </trkpt>
      <trkpt lat="45.45709" lon="5.21855">
        <ele>563</ele>
        <time>2024-05-15T07:15:24Z</time>
      </trkpt>
      <trkpt lat="45.45707" lon="5.2186">
        <ele>563</ele>
        <time>2024-05-15T07:15:23Z</time>
      </trkpt>
      <trkpt lat="45.45684" lon="5.21872">
        <ele>563</ele>
        <time>2024-05-15T07:15:17Z</time>
      </trkpt>
      <trkpt lat="45.45662" lon="5.21879">
        <ele>563</ele>
        <time>2024-05-15T07:15:12Z</time>
      </trkpt>
      <trkpt lat="45.45646" lon="5.21889">
        <ele>562</ele>
        <time>2024-05-15T07:15:08Z</time>
      </trkpt>
      <trkpt lat="45.45626" lon="5.21912">
        <ele>561</ele>
        <time>2024-05-15T07:15:02Z</time>
      </trkpt>
      <trkpt lat="45.45618" lon="5.21918">
        <ele>561</ele>
        <time>2024-05-15T07:15:00Z</time>
      </trkpt>
      <trkpt lat="45.45605" lon="5.21921">
        <ele>560</ele>
        <time>2024-05-15T07:14:57Z</time>
      </trkpt>
      <trkpt lat="45.45585" lon="5.21913">
        <ele>559</ele>
        <time>2024-05-15T07:14:52Z</time>
      </trkpt>
      <trkpt lat="45.45568" lon="5.21903">
        <ele>558</ele>
        <time>2024-05-15T07:14:47Z</time>
      </trkpt>
      <trkpt lat="45.45549" lon="5.21905">
        <ele>558</ele>
        <time>2024-05-15T07:14:43Z</time>
      </trkpt>
      <trkpt lat="45.45532" lon="5.21915">
        <ele>558</ele>
        <time>2024-05-15T07:14:39Z</time>
      </trkpt>
      <trkpt lat="45.45516" lon="5.21934">
        <ele>557</ele>
        <time>2024-05-15T07:14:34Z</time>
      </trkpt>
      <trkpt lat="45.45494" lon="5.21947">
        <ele>557</ele>
        <time>2024-05-15T07:14:28Z</time>
      </trkpt>
      <trkpt lat="45.45476" lon="5.21956">
        <ele>558</ele>
        <time>2024-05-15T07:14:24Z</time>
      </trkpt>
      <trkpt lat="45.45431" lon="5.2197">
        <ele>562</ele>
        <time>2024-05-15T07:14:13Z</time>
      </trkpt>
      <trkpt lat="45.45419" lon="5.21963">
        <ele>563</ele>
        <time>2024-05-15T07:14:10Z</time>
      </trkpt>
      <trkpt lat="45.45402" lon="5.21962">
        <ele>564</ele>
        <time>2024-05-15T07:14:06Z</time>
      </trkpt>
      <trkpt lat="45.45377" lon="5.21952">
        <ele>565</ele>
        <time>2024-05-15T07:14:00Z</time>
      </trkpt>
      <trkpt lat="45.45338" lon="5.21953">
        <ele>566</ele>
        <time>2024-05-15T07:13:51Z</time>
      </trkpt>
      <trkpt lat="45.45334" lon="5.21957">
        <ele>566</ele>
        <time>2024-05-15T07:13:50Z</time>
      </trkpt>
      <trkpt lat="45.4529" lon="5.21971">
        <ele>568</ele>
        <time>2024-05-15T07:13:39Z</time>
      </trkpt>
      <trkpt lat="45.45251" lon="5.21976">
        <ele>569</ele>
        <time>2024-05-15T07:13:30Z</time>
      </trkpt>
      <trkpt lat="45.45237" lon="5.21984">
        <ele>568</ele>
        <time>2024-05-15T07:13:27Z</time>
      </trkpt>
      <trkpt lat="45.45199" lon="5.22018">
        <ele>567</ele>
        <time>2024-05-15T07:13:16Z</time>
      </trkpt>
      <trkpt lat="45.45166" lon="5.22054">
        <ele>568</ele>
        <time>2024-05-15T07:13:06Z</time>
      </trkpt>
      <trkpt lat="45.45157" lon="5.22058">
        <ele>568</ele>
        <time>2024-05-15T07:13:04Z</time>
      </trkpt>
      <trkpt lat="45.45108" lon="5.2205">
        <ele>568</ele>
        <time>2024-05-15T07:12:53Z</time>
      </trkpt>
      <trkpt lat="45.45037" lon="5.22029">
        <ele>568</ele>
        <time>2024-05-15T07:12:36Z</time>
      </trkpt>
      <trkpt lat="45.45003" lon="5.22026">
        <ele>568</ele>
        <time>2024-05-15T07:12:28Z</time>
      </trkpt>
      <trkpt lat="45.44996" lon="5.2204">
        <ele>568</ele>
        <time>2024-05-15T07:12:25Z</time>
      </trkpt>
      <trkpt lat="45.45" lon="5.22074">
        <ele>567</ele>
        <time>2024-05-15T07:12:19Z</time>
      </trkpt>
      <trkpt lat="45.44999" lon="5.22112">
        <ele>567</ele>
        <time>2024-05-15T07:12:13Z</time>
      </trkpt>
      <trkpt lat="45.4499" lon="5.22142">
        <ele>567</ele>
        <time>2024-05-15T07:12:08Z</time>
      </trkpt>
      <trkpt lat="45.44967" lon="5.22182">
        <ele>566</ele>
        <time>2024-05-15T07:11:59Z</time>
      </trkpt>
      <trkpt lat="45.44945" lon="5.22227">
        <ele>565</ele>
        <time>2024-05-15T07:11:50Z</time>
      </trkpt>
      <trkpt lat="45.4494" lon="5.2225">
        <ele>565</ele>
        <time>2024-05-15T07:11:46Z</time>
      </trkpt>
      <trkpt lat="45.44939" lon="5.22276">
        <ele>565</ele>
        <time>2024-05-15T07:11:42Z</time>
      </trkpt>
      <trkpt lat="45.44942" lon="5.22301">
        <ele>566</ele>
        <time>2024-05-15T07:11:38Z</time>
      </trkpt>
      <trkpt lat="45.4494" lon="5.22317">
        <ele>566</ele>
        <time>2024-05-15T07:11:35Z</time>
      </trkpt>
      <trkpt lat="45.44934" lon="5.22334">
        <ele>566</ele>
        <time>2024-05-15T07:11:32Z</time>
      </trkpt>
      <trkpt lat="45.44931" lon="5.22361">
        <ele>566</ele>
        <time>2024-05-15T07:11:28Z</time>
      </trkpt>
      <trkpt lat="45.44913" lon="5.22412">
        <ele>566</ele>
        <time>2024-05-15T07:11:18Z</time>
      </trkpt>
      <trkpt lat="45.44909" lon="5.22445">
        <ele>566</ele>
        <time>2024-05-15T07:11:13Z</time>
      </trkpt>
      <trkpt lat="45.44902" lon="5.22431">
        <ele>566</ele>
        <time>2024-05-15T07:11:10Z</time>
        <extensions>
          <visugpx:TrkExtension xmlns:visugpx="https://www.visugpx.com/editgpx/">
            <visugpx:node>3</visugpx:node>
            </visugpx:TrkExtension>
        </extensions>
      </trkpt>
    </trkseg>
  </trk>
</gpx>